Data for 07/15/2011

Time Sea-Level Adjusted Pressure Absolute Pressure Temperature Relative Humidity Dew Point Precipitation   
(mb) (inHg) (mb) (inHg) (C) (F) (%) (C) (F) (mm) (in)
00:01 1016 30 846 24.98 9.9 49.8 82 7.1 44.7 -84.3 -3.319
00:02 1016 30 846 24.98 9.8 49.6 82 6.9 44.4 -84.4 -3.323
00:03 1016 30 846 24.98 9.6 49.3 83 6.9 44.5 -84.4 -3.323
00:04 1016 30 846 24.98 9.4 48.9 84 6.9 44.4 -84.4 -3.323
00:05 1016 30 846 24.98 9.3 48.7 84 6.8 44.2 -84.4 -3.323
00:06 1016 30 846 24.98 9.3 48.7 84 6.7 44.1 -84.4 -3.323
00:07 1016 30 846 24.98 9.3 48.7 84 6.7 44.1 -84.4 -3.323
00:08 1016 30 846 24.98 9.2 48.6 84 6.7 44 -84.4 -3.323
00:09 1016 30 846 24.98 9.2 48.6 84 6.7 44 -84.5 -3.327
00:10 1016 30 846 24.98 9.1 48.3 84 6.5 43.7 -84.5 -3.327
00:11 1016 30 846 24.98 8.8 47.8 87 6.7 44.1 -84.5 -3.327
00:12 1017 30.03 846 24.98 8.7 47.6 85 6.4 43.5 -84.5 -3.327
00:13 1017 30.03 846 24.98 8.5 47.2 88 6.6 43.8 -84.6 -3.331
00:14 1017 30.03 846 24.98 8.4 47.1 90 6.9 44.3 -84.6 -3.331
00:15 1017 30.03 846 24.98 8.3 47 90 6.9 44.3 -84.6 -3.331
00:16 1017 30.03 846 24.98 8.4 47 94 7.4 45.3 -84.6 -3.331
00:17 1017 30.03 846 24.98 8.7 47.6 92 7.5 45.4 -84.6 -3.331
00:18 1017 30.03 846 24.98 9 48.2 88 7.1 44.8 -84.6 -3.331
00:19 1017 30.03 846 24.98 9 48.3 89 7.2 45 -84.6 -3.331
00:20 1017 30.03 846 24.98 9.1 48.3 89 7.3 45.2 -84.6 -3.331
00:21 1017 30.03 846 24.98 9.1 48.3 89 7.4 45.2 -84.6 -3.331
00:22 1017 30.03 846 24.98 9 48.3 89 7.4 45.3 -84.7 -3.335
00:23 1017 30.03 846 24.98 9.1 48.3 89 7.4 45.3 -84.7 -3.335
00:24 1017 30.03 846 24.98 9.1 48.4 89 7.4 45.3 -84.7 -3.335
00:25 1017 30.03 846 24.98 9.2 48.6 89 7.4 45.3 -84.7 -3.335
00:26 1017 30.03 846 24.98 9.2 48.6 89 7.5 45.5 -84.7 -3.335
00:27 1017 30.03 846 24.98 9.2 48.5 89 7.5 45.5 -84.7 -3.335
00:28 1017 30.03 846 24.98 9.1 48.5 89 7.5 45.4 -84.7 -3.335
00:29 1017 30.03 846 24.98 9.2 48.5 89 7.5 45.5 -84.7 -3.335
00:30 1017 30.03 846 24.98 9.2 48.5 90 7.6 45.6 -84.7 -3.335
00:31 1017 30.03 846 24.98 9.2 48.5 90 7.6 45.7 -84.7 -3.335
00:32 1017 30.03 846 24.98 9.2 48.6 90 7.7 45.8 -84.8 -3.339
00:33 1017 30.03 846 24.98 9.2 48.6 90 7.7 45.9 -84.8 -3.339
00:34 1017 30.03 846 24.98 9.2 48.6 90 7.7 45.9 -84.8 -3.339
00:35 1017 30.03 846 24.98 9.3 48.7 90 7.7 45.9 -84.8 -3.339
00:36 1017 30.03 846 24.98 9.3 48.8 90 7.8 46 -84.8 -3.339
00:37 1017 30.03 846 24.98 9.3 48.8 90 7.8 46 -84.8 -3.339
00:38 1017 30.03 846 24.98 9.3 48.8 90 7.8 46 -84.8 -3.339
00:39 1017 30.03 846 24.98 9.3 48.8 90 7.8 46 -84.8 -3.339
00:40 1017 30.03 846 24.98 9.3 48.8 90 7.8 46 -84.8 -3.339
00:41 1017 30.03 846 24.98 9.3 48.7 90 7.8 46 -84.8 -3.339
00:42 1017 30.03 846 24.98 9.3 48.7 90 7.8 46 -84.9 -3.343
00:43 1017 30.03 846 24.98 9.2 48.6 90 7.7 45.9 -84.9 -3.343
00:44 1017 30.03 846 24.98 9.2 48.5 90 7.7 45.9 -84.9 -3.343
00:45 1017 30.03 846 24.98 9.2 48.5 90 7.7 45.9 -84.9 -3.343
00:46 1017 30.03 846 24.98 9.2 48.5 90 7.6 45.8 -84.9 -3.343
00:47 1017 30.03 846 24.98 9.2 48.5 90 7.7 45.8 -84.9 -3.343
00:48 1017 30.03 846 24.98 9.2 48.5 90 7.6 45.7 -84.9 -3.343
00:49 1017 30.03 846 24.98 9.2 48.5 90 7.7 45.8 -84.9 -3.343
00:50 1017 30.03 846 24.98 9.2 48.5 90 7.6 45.8 -84.9 -3.343
00:51 1017 30.03 846 24.98 9.4 48.8 89 7.6 45.7 -84.9 -3.343
00:52 1017 30.03 846 24.98 9.4 48.9 89 7.7 45.9 -84.9 -3.343
00:53 1017 30.03 846 24.98 9.4 48.8 90 7.8 46.1 -84.9 -3.343
00:54 1017 30.03 846 24.98 9.3 48.8 90 7.8 46.1 -84.9 -3.343
00:55 1017 30.03 846 24.98 9.3 48.8 90 7.8 46 -84.9 -3.343
00:56 1017 30.03 846 24.98 9.3 48.7 88 7.5 45.5 -84.9 -3.343
00:57 1017 30.03 846 24.98 9.2 48.5 88 7.3 45.1 -84.9 -3.343
00:58 1017 30.03 846 24.98 8.9 48 89 7.2 45 -84.9 -3.343
00:59 1017 30.03 846 24.98 8.7 47.7 90 7.2 45 -84.9 -3.343
01:00 1017 30.03 846 24.98 8.6 47.5 91 7.2 45 -84.9 -3.343
01:01 1017 30.03 846 24.98 8.5 47.3 91 7.2 44.9 -84.9 -3.343
01:02 1017 30.03 846 24.98 8.4 47.2 91 7.1 44.7 -84.9 -3.343
01:03 1017 30.03 846 24.98 8.3 47 90 6.7 44.1 -84.9 -3.343
01:04 1017 30.03 846 24.98 8.2 46.7 91 6.8 44.2 -84.9 -3.343
01:05 1017 30.03 846 24.98 8.1 46.6 92 6.9 44.3 -84.9 -3.343
01:06 1017 30.03 846 24.98 8 46.5 92 6.8 44.2 -84.9 -3.343
01:07 1017 30.03 846 24.98 8 46.3 93 6.9 44.4 -84.9 -3.343
01:08 1017 30.03 846 24.98 7.9 46.2 94 6.9 44.5 -84.9 -3.343
01:09 1017 30.03 846 24.98 8 46.4 95 7.2 45 -84.9 -3.343
01:10 1017 30.03 846 24.98 8.2 46.7 95 7.4 45.4 -84.9 -3.343
01:11 1017 30.03 846 24.98 8.5 47.3 92 7.2 45 -84.9 -3.343
01:12 1017 30.03 846 24.98 8.6 47.4 90 7 44.6 -84.9 -3.343
01:13 1017 30.03 846 24.98 8.5 47.4 90 7.1 44.7 -84.9 -3.343
01:14 1017 30.03 846 24.98 8.5 47.3 91 7.2 44.9 -84.9 -3.343
01:15 1017 30.03 846 24.98 8.6 47.5 92 7.4 45.2 -85 -3.346
01:16 1017 30.03 846 24.98 8.6 47.6 91 7.3 45.1 -85 -3.346
01:17 1017 30.03 846 24.98 8.7 47.6 90 7.2 45 -85 -3.346
01:18 1017 30.03 846 24.98 8.7 47.7 90 7.2 45 -85.1 -3.35
01:19 1017 30.03 846 24.98 8.7 47.6 90 7.1 44.9 -85.1 -3.35
01:20 1017 30.03 846 24.98 8.6 47.6 90 7.2 44.9 -85.1 -3.35
01:21 1017 30.03 846 24.98 8.7 47.6 91 7.3 45.2 -85.1 -3.35
01:22 1017 30.03 846 24.98 8.8 47.8 92 7.5 45.5 -85.1 -3.35
01:23 1017 30.03 846 24.98 9.1 48.4 90 7.5 45.5 -85.1 -3.35
01:24 1017 30.03 846 24.98 9.4 49 86 7.3 45.1 -85.2 -3.354
01:25 1017 30.03 846 24.98 9.4 49 85 7.1 44.7 -85.2 -3.354
01:26 1017 30.03 846 24.98 9.2 48.5 87 7.1 44.7 -85.2 -3.354
01:27 1017 30.03 846 24.98 8.9 48.1 88 7.1 44.7 -85.3 -3.358
01:28 1017 30.03 846 24.98 8.8 47.8 89 7.1 44.7 -85.3 -3.358
01:29 1017 30.03 846 24.98 8.6 47.5 90 7 44.7 -85.3 -3.358
01:30 1017 30.03 846 24.98 8.5 47.4 91 7.1 44.8 -85.3 -3.358
01:31 1017 30.03 846 24.98 8.4 47.2 91 7.1 44.8 -85.3 -3.358
01:32 1017 30.03 846 24.98 8.4 47.2 92 7.1 44.8 -85.3 -3.358
01:33 1017 30.03 846 24.98 8.4 47 90 6.9 44.4 -85.2 -3.354
01:34 1017 30.03 846 24.98 8.3 46.9 91 6.8 44.3 -85.2 -3.354
01:35 1017 30.03 846 24.98 8.2 46.7 90 6.7 44 -85.3 -3.358
01:36 1017 30.03 846 24.98 8.1 46.5 91 6.7 44.1 -85.3 -3.358
01:37 1017 30.03 846 24.98 8.1 46.5 91 6.7 44.1 -85.3 -3.358
01:38 1017 30.03 846 24.98 7.9 46.3 89 6.2 43.2 -85.3 -3.358
01:39 1017 30.03 846 24.98 7.7 45.8 90 6.1 43 -85.3 -3.358
01:40 1017 30.03 846 24.98 7.4 45.4 91 6 42.8 -85.4 -3.362
01:41 1017 30.03 846 24.98 7.2 44.9 93 6.1 42.9 -85.4 -3.362
01:42 1017 30.03 846 24.98 7.2 45 94 6.3 43.3 -85.4 -3.362
01:43 1017 30.03 846 24.98 7.3 45.2 94 6.4 43.5 -85.4 -3.362
01:44 1017 30.03 846 24.98 7.5 45.5 94 6.6 43.9 -85.4 -3.362
01:45 1017 30.03 846 24.98 7.7 45.9 93 6.7 44 -85.4 -3.362
01:46 1017 30.03 846 24.98 7.9 46.1 92 6.6 43.9 -85.4 -3.362
01:47 1017 30.03 846 24.98 7.9 46.3 92 6.7 44 -85.4 -3.362
01:48 1017 30.03 846 24.98 8 46.4 91 6.6 43.8 -85.4 -3.362
01:49 1017 30.03 846 24.98 7.9 46.3 91 6.5 43.7 -85.5 -3.366
01:50 1017 30.03 846 24.98 7.8 46.1 91 6.5 43.7 -85.5 -3.366
01:51 1017 30.03 846 24.98 7.8 46.1 92 6.6 43.8 -85.5 -3.366
01:52 1017 30.03 846 24.98 7.9 46.2 92 6.6 43.9 -85.5 -3.366
01:53 1017 30.03 846 24.98 8 46.4 91 6.7 44 -85.5 -3.366
01:54 1017 30.03 846 24.98 8.1 46.5 91 6.6 44 -85.5 -3.366
01:55 1017 30.03 846 24.98 8.1 46.6 90 6.5 43.7 -85.5 -3.366
01:56 1017 30.03 846 24.98 8 46.5 89 6.4 43.5 -85.6 -3.37
01:57 1017 30.03 847 25.01 7.9 46.2 90 6.3 43.3 -85.6 -3.37
01:58 1017 30.03 847 25.01 7.8 46 91 6.4 43.5 -85.6 -3.37
01:59 1017 30.03 847 25.01 7.7 45.9 91 6.4 43.5 -85.6 -3.37
02:00 1017 30.03 847 25.01 7.8 46.1 91 6.5 43.7 -85.6 -3.37
02:01 1017 30.03 847 25.01 8 46.4 91 6.5 43.8 -85.6 -3.37
02:02 1017 30.03 847 25.01 8 46.4 90 6.5 43.7 -85.6 -3.37
02:03 1017 30.03 847 25.01 8 46.3 90 6.5 43.7 -85.6 -3.37
02:04 1017 30.03 847 25.01 7.9 46.1 91 6.4 43.6 -85.6 -3.37
02:05 1017 30.03 847 25.01 7.8 46 91 6.4 43.5 -85.6 -3.37
02:06 1017 30.03 847 25.01 7.7 45.8 91 6.3 43.3 -85.7 -3.374
02:07 1017 30.03 847 25.01 7.6 45.7 91 6.3 43.4 -85.7 -3.374
02:08 1017 30.03 847 25.01 7.6 45.6 92 6.3 43.3 -85.7 -3.374
02:09 1017 30.03 847 25.01 7.6 45.7 92 6.3 43.4 -85.7 -3.374
02:10 1017 30.03 847 25.01 7.6 45.7 92 6.3 43.4 -85.7 -3.374
02:11 1017 30.03 847 25.01 7.7 45.8 91 6.4 43.5 -85.7 -3.374
02:12 1017 30.03 847 25.01 7.7 45.9 91 6.3 43.4 -85.7 -3.374
02:13 1017 30.03 847 25.01 7.7 45.9 91 6.3 43.4 -85.7 -3.374
02:14 1017 30.03 847 25.01 7.7 45.9 91 6.3 43.4 -85.7 -3.374
02:15 1017 30.03 847 25.01 7.7 45.9 91 6.4 43.4 -85.7 -3.374
02:16 1017 30.03 847 25.01 7.8 46 91 6.4 43.5 -85.7 -3.374
02:17 1017 30.03 847 25.01 7.7 45.9 91 6.4 43.5 -85.7 -3.374
02:18 1017 30.03 847 25.01 7.7 45.9 92 6.5 43.7 -85.7 -3.374
02:19 1017 30.03 847 25.01 7.9 46.3 92 6.7 44.1 -85.7 -3.374
02:20 1017 30.03 847 25.01 8.1 46.6 91 6.7 44 -85.7 -3.374
02:21 1017 30.03 847 25.01 8.2 46.7 91 6.7 44.1 -85.7 -3.374
02:22 1017 30.03 847 25.01 8.3 46.9 90 6.8 44.2 -85.8 -3.378
02:23 1017 30.03 847 25.01 8.5 47.2 89 6.8 44.3 -85.8 -3.378
02:24 1017 30.03 847 25.01 8.5 47.4 89 6.8 44.2 -85.8 -3.378
02:25 1017 30.03 847 25.01 8.5 47.4 89 6.8 44.3 -85.8 -3.378
02:26 1017 30.03 846 24.98 8.6 47.5 88 6.8 44.3 -85.8 -3.378
02:27 1017 30.03 847 25.01 8.7 47.6 87 6.7 44 -85.8 -3.378
02:28 1017 30.03 846 24.98 8.7 47.6 87 6.6 43.9 -85.9 -3.382
02:29 1017 30.03 846 24.98 8.5 47.3 87 6.5 43.7 -85.9 -3.382
02:30 1017 30.03 846 24.98 8.3 47 88 6.5 43.6 -85.9 -3.382
02:31 1017 30.03 846 24.98 8.2 46.7 89 6.5 43.7 -85.9 -3.382
02:32 1017 30.03 846 24.98 8.1 46.6 90 6.5 43.7 -85.9 -3.382
02:33 1017 30.03 846 24.98 8 46.5 91 6.6 43.8 -85.9 -3.382
02:34 1017 30.03 846 24.98 8 46.5 91 6.6 43.9 -85.9 -3.382
02:35 1017 30.03 846 24.98 8 46.5 91 6.6 43.8 -85.9 -3.382
02:36 1017 30.03 846 24.98 8.1 46.5 90 6.6 43.9 -85.9 -3.382
02:37 1017 30.03 846 24.98 8.1 46.5 90 6.5 43.8 -85.9 -3.382
02:38 1017 30.03 846 24.98 8 46.4 91 6.5 43.8 -85.9 -3.382
02:39 1017 30.03 846 24.98 7.9 46.3 91 6.6 43.9 -85.9 -3.382
02:40 1017 30.03 846 24.98 8 46.4 91 6.6 43.9 -85.9 -3.382
02:41 1017 30.03 846 24.98 8.1 46.5 91 6.6 43.9 -85.9 -3.382
02:42 1017 30.03 846 24.98 8.1 46.5 90 6.6 43.9 -85.9 -3.382
02:43 1017 30.03 846 24.98 8 46.5 91 6.6 43.9 -86 -3.386
02:44 1017 30.03 846 24.98 8 46.4 92 6.7 44.1 -86 -3.386
02:45 1017 30.03 846 24.98 8.1 46.5 92 6.8 44.3 -86 -3.386
02:46 1017 30.03 846 24.98 8.2 46.8 92 6.9 44.5 -86 -3.386
02:47 1017 30.03 846 24.98 8.3 47 91 7 44.5 -86 -3.386
02:48 1017 30.03 846 24.98 8.4 47 90 6.8 44.3 -86 -3.386
02:49 1017 30.03 846 24.98 8.3 46.9 90 6.8 44.2 -86 -3.386
02:50 1017 30.03 846 24.98 8.3 46.9 90 6.8 44.3 -86 -3.386
02:51 1017 30.03 846 24.98 8.3 47 91 6.9 44.4 -86 -3.386
02:52 1017 30.03 846 24.98 8.4 47.1 91 6.9 44.5 -86 -3.386
02:53 1017 30.03 846 24.98 8.5 47.2 90 6.9 44.4 -86 -3.386
02:54 1017 30.03 846 24.98 8.5 47.3 90 6.9 44.4 -86 -3.386
02:55 1017 30.03 846 24.98 8.6 47.4 89 6.9 44.4 -86 -3.386
02:56 1017 30.03 846 24.98 8.6 47.4 89 6.8 44.3 -86 -3.386
02:57 1017 30.03 846 24.98 8.6 47.4 89 6.8 44.3 -86 -3.386
02:58 1017 30.03 846 24.98 8.6 47.4 89 6.8 44.3 -86 -3.386
02:59 1017 30.03 846 24.98 8.6 47.4 88 6.8 44.2 -86 -3.386
03:00 1017 30.03 846 24.98 8.7 47.6 88 6.7 44.1 -86 -3.386
03:01 1017 30.03 846 24.98 8.7 47.7 87 6.7 44 -86 -3.386
03:02 1017 30.03 846 24.98 8.9 47.9 86 6.7 44.1 -86.1 -3.39
03:03 1017 30.03 846 24.98 8.8 47.9 86 6.7 44 -86.1 -3.39
03:04 1017 30.03 846 24.98 8.8 47.8 86 6.6 44 -86.1 -3.39
03:05 1017 30.03 846 24.98 8.7 47.7 86 6.6 43.8 -86.1 -3.39
03:06 1017 30.03 846 24.98 8.7 47.6 87 6.6 43.9 -86.1 -3.39
03:07 1017 30.03 846 24.98 8.6 47.4 87 6.6 43.8 -86.1 -3.39
03:08 1017 30.03 846 24.98 8.5 47.3 87 6.5 43.8 -86.1 -3.39
03:09 1017 30.03 846 24.98 8.4 47.2 88 6.5 43.7 -86.1 -3.39
03:10 1017 30.03 846 24.98 8.4 47.1 88 6.5 43.8 -86.1 -3.39
03:11 1017 30.03 846 24.98 8.3 46.9 88 6.5 43.7 -86.1 -3.39
03:12 1017 30.03 846 24.98 8.3 46.9 89 6.5 43.8 -86.1 -3.39
03:13 1017 30.03 846 24.98 8.3 46.9 89 6.5 43.7 -86.1 -3.39
03:14 1017 30.03 847 25.01 8.2 46.8 89 6.5 43.7 -86.1 -3.39
03:15 1017 30.03 846 24.98 8.2 46.7 89 6.5 43.6 -86.1 -3.39
03:16 1017 30.03 847 25.01 8.1 46.6 89 6.5 43.6 -86.1 -3.39
03:17 1017 30.03 847 25.01 8.1 46.6 89 6.4 43.6 -86.1 -3.39
03:18 1017 30.03 847 25.01 8 46.5 89 6.4 43.5 -86.1 -3.39
03:19 1017 30.03 846 24.98 8 46.4 90 6.4 43.5 -86.1 -3.39
03:20 1017 30.03 847 25.01 7.9 46.3 90 6.3 43.4 -86.1 -3.39
03:21 1017 30.03 847 25.01 7.9 46.2 90 6.3 43.4 -86 -3.386
03:22 1017 30.03 847 25.01 7.8 46.1 90 6.3 43.3 -86 -3.386
03:23 1017 30.03 847 25.01 7.8 46 90 6.2 43.2 -86 -3.386
03:24 1017 30.03 847 25.01 7.8 46 90 6.2 43.2 -86 -3.386
03:25 1017 30.03 847 25.01 7.7 45.8 90 6.1 42.9 -86 -3.386
03:26 1017 30.03 847 25.01 7.6 45.6 90 6.1 43 -86 -3.386
03:27 1017 30.03 847 25.01 7.5 45.5 91 6.2 43.1 -86 -3.386
03:28 1017 30.03 847 25.01 7.5 45.5 92 6.2 43.2 -86 -3.386
03:29 1017 30.03 847 25.01 7.5 45.5 92 6.3 43.4 -86 -3.386
03:30 1017 30.03 847 25.01 7.6 45.7 92 6.3 43.4 -86 -3.386
03:31 1017 30.03 847 25.01 7.8 46 92 6.5 43.7 -86 -3.386
03:32 1017 30.03 847 25.01 8 46.3 90 6.4 43.6 -86 -3.386
03:33 1017 30.03 847 25.01 8.2 46.7 89 6.5 43.8 -86 -3.386
03:34 1017 30.03 847 25.01 8.5 47.3 87 6.5 43.8 -86 -3.386
03:35 1017 30.03 847 25.01 8.7 47.6 87 6.6 43.8 -86 -3.386
03:36 1018 30.06 847 25.01 8.7 47.7 86 6.6 43.9 -86 -3.386
03:37 1018 30.06 847 25.01 8.7 47.6 86 6.5 43.8 -86 -3.386
03:38 1018 30.06 847 25.01 8.7 47.6 86 6.5 43.7 -86 -3.386
03:39 1018 30.06 847 25.01 8.6 47.5 86 6.4 43.5 -86 -3.386
03:40 1018 30.06 847 25.01 8.6 47.4 86 6.4 43.6 -86 -3.386
03:41 1018 30.06 847 25.01 8.6 47.4 87 6.6 43.9 -86 -3.386
03:42 1018 30.06 847 25.01 8.6 47.5 86 6.5 43.7 -86.1 -3.39
03:43 1018 30.06 847 25.01 8.6 47.5 86 6.4 43.5 -86.1 -3.39
03:44 1018 30.06 847 25.01 8.7 47.6 86 6.4 43.5 -86.1 -3.39
03:45 1017 30.03 847 25.01 8.6 47.6 85 6.3 43.4 -86.1 -3.39
03:46 1018 30.06 847 25.01 8.7 47.6 85 6.2 43.2 -86.1 -3.39
03:47 1017 30.03 847 25.01 8.6 47.5 85 6.3 43.4 -86.1 -3.39
03:48 1017 30.03 847 25.01 8.7 47.7 86 6.4 43.6 -86.1 -3.39
03:49 1017 30.03 847 25.01 8.8 47.8 85 6.4 43.6 -86.1 -3.39
03:50 1017 30.03 847 25.01 8.8 47.9 85 6.4 43.5 -86.1 -3.39
03:51 1017 30.03 847 25.01 8.7 47.7 85 6.3 43.4 -86.1 -3.39
03:52 1017 30.03 847 25.01 8.7 47.6 85 6.3 43.3 -86.1 -3.39
03:53 1017 30.03 847 25.01 8.5 47.4 85 6.1 43 -86.1 -3.39
03:54 1017 30.03 847 25.01 8.3 47 85 6 42.8 -86.1 -3.39
03:55 1017 30.03 847 25.01 8.1 46.6 86 5.9 42.6 -86.1 -3.39
03:56 1017 30.03 847 25.01 7.9 46.2 87 5.8 42.4 -86.1 -3.39
03:57 1017 30.03 847 25.01 7.7 45.9 87 5.7 42.3 -86.1 -3.39
03:58 1017 30.03 847 25.01 7.5 45.4 88 5.6 42.1 -86.1 -3.39
03:59 1017 30.03 847 25.01 7.4 45.2 90 5.7 42.3 -86.1 -3.39
04:00 1017 30.03 847 25.01 7.4 45.3 90 5.8 42.4 -86.1 -3.39
04:01 1017 30.03 847 25.01 7.4 45.2 89 5.7 42.2 -86.1 -3.39
04:02 1017 30.03 847 25.01 7.4 45.2 89 5.6 42.1 -86.2 -3.394
04:03 1017 30.03 847 25.01 7.2 45 89 5.6 42 -86.2 -3.394
04:04 1017 30.03 847 25.01 7.2 45 89 5.6 42 -86.2 -3.394
04:05 1017 30.03 847 25.01 7.2 44.9 89 5.4 41.7 -86.2 -3.394
04:06 1017 30.03 847 25.01 7 44.6 89 5.3 41.6 -86.2 -3.394
04:07 1017 30.03 847 25.01 6.9 44.4 90 5.4 41.7 -86.2 -3.394
04:08 1017 30.03 847 25.01 6.9 44.4 91 5.6 42.1 -86.2 -3.394
04:09 1017 30.03 847 25.01 7 44.7 92 5.9 42.6 -86.2 -3.394
04:10 1017 30.03 847 25.01 7.2 44.9 92 5.9 42.6 -86.1 -3.39
04:11 1017 30.03 847 25.01 7.2 45 91 5.9 42.6 -86.1 -3.39
04:12 1018 30.06 847 25.01 7.3 45.2 90 5.8 42.4 -86.1 -3.39
04:13 1017 30.03 847 25.01 7.3 45.1 90 5.8 42.5 -86.2 -3.394
04:14 1017 30.03 847 25.01 7.3 45.1 90 5.8 42.5 -86.2 -3.394
04:15 1017 30.03 847 25.01 7.3 45.2 90 5.8 42.4 -86.2 -3.394
04:16 1017 30.03 847 25.01 7.3 45.1 90 5.7 42.2 -86.2 -3.394
04:17 1017 30.03 847 25.01 7.2 44.9 89 5.5 41.9 -86.2 -3.394
04:18 1017 30.03 847 25.01 7 44.6 90 5.5 41.8 -86.2 -3.394
04:19 1018 30.06 847 25.01 6.9 44.4 91 5.5 41.8 -86.2 -3.394
04:20 1018 30.06 847 25.01 6.9 44.5 91 5.5 41.9 -86.2 -3.394
04:21 1018 30.06 847 25.01 6.8 44.3 90 5.4 41.7 -86.2 -3.394
04:22 1017 30.03 847 25.01 6.8 44.2 91 5.4 41.7 -86.2 -3.394
04:23 1018 30.06 847 25.01 6.7 44.1 91 5.4 41.7 -86.3 -3.398
04:24 1018 30.06 847 25.01 6.6 43.9 91 5.2 41.4 -86.3 -3.398
04:25 1018 30.06 847 25.01 6.5 43.8 91 5.2 41.3 -86.3 -3.398
04:26 1018 30.06 847 25.01 6.4 43.5 91 5 41 -86.3 -3.398
04:27 1018 30.06 847 25.01 6.3 43.3 92 5 41 -86.3 -3.398
04:28 1018 30.06 847 25.01 6.3 43.3 92 5 41.1 -86.3 -3.398
04:29 1018 30.06 847 25.01 6.2 43.1 92 5 41 -86.3 -3.398
04:30 1018 30.06 847 25.01 6.1 43.1 93 5.1 41.1 -86.3 -3.398
04:31 1018 30.06 847 25.01 6.2 43.1 93 5.2 41.3 -86.3 -3.398
04:32 1018 30.06 847 25.01 6.2 43.2 94 5.3 41.5 -86.3 -3.398
04:33 1018 30.06 847 25.01 6.3 43.3 94 5.4 41.7 -86.3 -3.398
04:34 1018 30.06 847 25.01 6.3 43.4 94 5.4 41.7 -86.3 -3.398
04:35 1018 30.06 847 25.01 6.4 43.5 94 5.5 41.9 -86.3 -3.398
04:36 1018 30.06 847 25.01 6.5 43.7 94 5.6 42.1 -86.3 -3.398
04:37 1018 30.06 847 25.01 6.6 44 93 5.7 42.2 -86.3 -3.398
04:38 1018 30.06 847 25.01 6.7 44.1 93 5.7 42.3 -86.3 -3.398
04:39 1018 30.06 847 25.01 6.9 44.4 93 5.8 42.4 -86.3 -3.398
04:40 1018 30.06 847 25.01 7.1 44.7 91 5.6 42.2 -86.3 -3.398
04:41 1018 30.06 847 25.01 7.1 44.7 90 5.5 41.9 -86.3 -3.398
04:42 1018 30.06 847 25.01 6.9 44.5 88 5 41 -86.3 -3.398
04:43 1018 30.06 847 25.01 6.8 44.2 89 5 41 -86.4 -3.402
04:44 1018 30.06 847 25.01 6.6 43.9 91 5.2 41.3 -86.4 -3.402
04:45 1018 30.06 847 25.01 6.5 43.8 89 4.9 40.8 -86.4 -3.402
04:46 1018 30.06 847 25.01 6.4 43.6 90 5 40.9 -86.4 -3.402
04:47 1018 30.06 847 25.01 6.3 43.4 92 5.1 41.2 -86.4 -3.402
04:48 1018 30.06 847 25.01 6.4 43.5 92 5.2 41.3 -86.4 -3.402
04:49 1018 30.06 847 25.01 6.4 43.5 92 5.2 41.3 -86.4 -3.402
04:50 1018 30.06 847 25.01 6.4 43.5 93 5.3 41.5 -86.4 -3.402
04:51 1018 30.06 847 25.01 6.4 43.5 91 5 41.1 -86.4 -3.402
04:52 1018 30.06 847 25.01 6.3 43.3 91 4.9 40.8 -86.4 -3.402
04:53 1018 30.06 847 25.01 6 42.9 91 4.7 40.4 -86.4 -3.402
04:54 1018 30.06 847 25.01 5.9 42.6 92 4.7 40.5 -86.4 -3.402
04:55 1018 30.06 847 25.01 5.8 42.5 93 4.8 40.7 -86.4 -3.402
04:56 1018 30.06 847 25.01 5.8 42.4 94 4.9 40.8 -86.4 -3.402
04:57 1018 30.06 847 25.01 5.8 42.5 95 5 41.1 -86.4 -3.402
04:58 1018 30.06 847 25.01 6.1 42.9 95 5.3 41.5 -86.5 -3.406
04:59 1018 30.06 847 25.01 6.2 43.2 94 5.3 41.5 -86.5 -3.406
05:00 1018 30.06 847 25.01 6.3 43.3 94 5.3 41.6 -86.5 -3.406
05:01 1018 30.06 847 25.01 6.5 43.7 93 5.5 41.9 -86.5 -3.406
05:02 1018 30.06 847 25.01 6.6 44 92 5.5 41.9 -86.5 -3.406
05:03 1018 30.06 847 25.01 6.7 44.1 91 5.3 41.5 -86.5 -3.406
05:04 1018 30.06 847 25.01 6.6 43.9 90 5.1 41.2 -86.5 -3.406
05:05 1018 30.06 847 25.01 6.5 43.6 91 5 41.1 -86.5 -3.406
05:06 1018 30.06 847 25.01 6.4 43.4 91 4.9 40.9 -86.5 -3.406
05:07 1018 30.06 847 25.01 6.2 43.2 91 4.9 40.9 -86.6 -3.409
05:08 1018 30.06 847 25.01 6.1 43 92 4.9 40.8 -86.6 -3.409
05:09 1018 30.06 847 25.01 6.1 42.9 92 4.9 40.8 -86 -3.386
09:12 1018 30.06 847 25.01 14.2 57.5 72 9.2 48.5 -56.55 -2.226
09:13 1018 30.06 847 25.01 14.2 57.6 75 10 50 -63.81 -2.512
09:14 1018 30.06 847 25.01 14.4 57.9 73 9.6 49.3 -72.2 -2.843
09:15 1018 30.06 847 25.01 14.5 58.1 70 9.1 48.3 -76.9 -3.028
09:16 1018 30.06 847 25.01 14.5 58.1 69 9 48.2 -79.7 -3.138
09:17 1018 30.06 847 25.01 14.6 58.3 72 9.7 49.5 -81.2 -3.197
09:18 1018 30.06 847 25.01 14.7 58.4 70 9.4 48.9 -82.2 -3.236
09:19 1018 30.06 847 25.01 14.7 58.4 67 8.6 47.4 -82.7 -3.256
09:20 1018 30.06 847 25.01 14.6 58.2 70 9.3 48.7 -83 -3.268
09:21 1018 30.06 847 25.01 14.4 58 66 8.3 47 -83.2 -3.276
09:22 1018 30.06 847 25.01 14.4 57.9 68 8.7 47.7 -83.4 -3.283
09:23 1018 30.06 847 25.01 14.5 58 68 8.8 47.8 -83.5 -3.287
09:24 1018 30.06 847 25.01 14.6 58.2 68 8.8 47.9 -83.5 -3.287
09:25 1018 30.06 847 25.01 14.6 58.3 66 8.3 47 -83.6 -3.291
09:26 1018 30.06 847 25.01 14.7 58.5 68 8.9 48.1 -83.7 -3.295
09:27 1018 30.06 847 25.01 14.8 58.6 72 9.8 49.6 -83.7 -3.295
09:28 1018 30.06 847 25.01 14.9 58.9 65 8.5 47.3 -83.7 -3.295
09:29 1018 30.06 847 25.01 14.9 58.8 66 8.6 47.5 -83.8 -3.299
09:30 1018 30.06 847 25.01 14.8 58.6 70 9.5 49.1 -83.8 -3.299
09:31 1018 30.06 847 25.01 14.7 58.5 68 8.9 48 -83.9 -3.303
09:32 1018 30.06 847 25.01 14.6 58.3 68 8.8 47.8 -83.9 -3.303
09:33 1018 30.06 847 25.01 14.5 58.1 68 8.8 47.9 -83.9 -3.303
09:34 1018 30.06 847 25.01 14.5 58 72 9.4 49 -84 -3.307
09:35 1018 30.06 847 25.01 14.5 58 66 8.2 46.8 -84 -3.307
09:36 1018 30.06 847 25.01 14.5 58.1 67 8.6 47.5 -84 -3.307
09:37 1018 30.06 847 25.01 14.6 58.2 69 9.1 48.4 -84 -3.307
09:38 1018 30.06 847 25.01 14.7 58.5 67 8.7 47.7 -84 -3.307
09:39 1018 30.06 847 25.01 14.9 58.7 66 8.7 47.6 -84 -3.307
09:40 1018 30.06 847 25.01 15 59 68 9.2 48.6 -84 -3.307
09:41 1018 30.06 847 25.01 15.1 59.2 69 9.5 49.1 -84 -3.307
09:42 1018 30.06 847 25.01 15.2 59.3 68 9.3 48.8 -84 -3.307
09:43 1018 30.06 847 25.01 15.1 59.2 67 9 48.2 -83.9 -3.303
09:44 1018 30.06 847 25.01 15 59 68 9.2 48.6 -83.9 -3.303
09:45 1018 30.06 847 25.01 14.9 58.9 66 8.7 47.7 -83.9 -3.303
09:46 1018 30.06 847 25.01 14.8 58.7 66 8.6 47.4 -83.9 -3.303
09:47 1018 30.06 847 25.01 14.7 58.5 65 8.3 46.9 -83.9 -3.303
09:48 1018 30.06 847 25.01 14.7 58.5 72 9.7 49.5 -83.9 -3.303
09:49 1018 30.06 847 25.01 14.9 58.8 67 8.9 48 -83.9 -3.303
09:50 1018 30.06 847 25.01 15 59 71 9.8 49.6 -83.9 -3.303
09:51 1018 30.06 847 25.01 15 59.1 70 9.7 49.5 -83.9 -3.303
09:52 1018 30.06 847 25.01 15 58.9 67 9 48.2 -83.9 -3.303
09:53 1018 30.06 847 25.01 14.8 58.7 70 9.4 48.9 -83.9 -3.303
09:54 1018 30.06 847 25.01 14.8 58.7 75 10.4 50.8 -83.9 -3.303
09:55 1018 30.06 847 25.01 14.9 58.8 73 10.2 50.3 -83.9 -3.303
09:56 1018 30.06 847 25.01 14.9 58.8 67 8.9 48.1 -83.9 -3.303
09:57 1018 30.06 847 25.01 14.7 58.5 68 8.9 48.1 -83.8 -3.299
09:58 1018 30.06 847 25.01 14.6 58.3 67 8.6 47.4 -83.7 -3.295
09:59 1018 30.06 847 25.01 14.6 58.2 69 9 48.3 -83.6 -3.291
10:00 1018 30.06 847 25.01 14.5 58.1 70 9.1 48.4 -83.5 -3.287
10:01 1018 30.06 847 25.01 14.5 58 72 9.6 49.3 -83.5 -3.287
10:02 1018 30.06 847 25.01 14.4 57.9 77 10.4 50.7 -83.5 -3.287
10:03 1018 30.06 847 25.01 14.4 57.9 72 9.5 49.1 -83.5 -3.287
10:04 1018 30.06 847 25.01 14.4 58 77 10.4 50.8 -83.5 -3.287
10:05 1018 30.06 847 25.01 14.5 58.1 73 9.8 49.7 -83.5 -3.287
10:06 1018 30.06 847 25.01 14.5 58.1 76 10.4 50.7 -83.5 -3.287
10:07 1018 30.06 847 25.01 14.6 58.2 75 10.2 50.3 -83.5 -3.287
10:08 1018 30.06 847 25.01 14.7 58.4 72 9.8 49.6 -83.5 -3.287
10:09 1018 30.06 847 25.01 14.6 58.3 71 9.4 49 -83.5 -3.287
10:10 1018 30.06 847 25.01 14.5 58.2 71 9.4 48.9 -83.6 -3.291
10:11 1018 30.06 847 25.01 14.5 58 74 9.9 49.8 -83.6 -3.291
10:12 1018 30.06 847 25.01 14.4 58 74 9.8 49.7 -83.6 -3.291
10:13 1018 30.06 847 25.01 14.4 57.9 73 9.6 49.4 -83.6 -3.291
10:14 1018 30.06 847 25.01 14.4 57.9 73 9.7 49.5 -83.6 -3.291
10:15 1018 30.06 847 25.01 14.4 58 74 9.9 49.9 -83.6 -3.291
10:16 1018 30.06 847 25.01 14.5 58 79 10.9 51.6 -83.6 -3.291
10:17 1018 30.06 847 25.01 14.6 58.2 74 9.9 49.9 -83.6 -3.291
10:18 1018 30.06 847 25.01 14.6 58.3 74 10.1 50.1 -83.6 -3.291
10:19 1018 30.06 847 25.01 14.6 58.2 73 9.7 49.5 -83.6 -3.291
10:20 1018 30.06 847 25.01 14.5 58.2 74 10 49.9 -83.6 -3.291
10:21 1018 30.06 847 25.01 14.5 58 73 9.7 49.5 -83.6 -3.291
10:22 1018 30.06 847 25.01 14.4 58 77 10.5 50.8 -83.6 -3.291
10:23 1018 30.06 847 25.01 14.4 58 78 10.6 51.2 -83.7 -3.295
10:24 1018 30.06 847 25.01 14.4 57.9 74 10 49.9 -83.6 -3.291
10:25 1018 30.06 847 25.01 14.4 57.9 76 10.2 50.3 -83.6 -3.291
10:26 1018 30.06 847 25.01 14.3 57.8 75 10 49.9 -83.6 -3.291
10:27 1018 30.06 847 25.01 14.3 57.7 78 10.5 50.9 -83.6 -3.291
10:28 1018 30.06 847 25.01 14.3 57.7 78 10.5 50.8 -83.6 -3.291
10:29 1018 30.06 847 25.01 14.3 57.8 77 10.5 50.8 -83.6 -3.291
10:30 1018 30.06 847 25.01 14.3 57.8 77 10.3 50.5 -83.5 -3.287
10:31 1018 30.06 847 25.01 14.3 57.7 76 10.1 50.3 -83.5 -3.287
10:32 1018 30.06 847 25.01 14.2 57.5 81 10.9 51.7 -83.5 -3.287
10:33 1018 30.06 847 25.01 14.2 57.5 81 10.9 51.7 -83.5 -3.287
10:34 1018 30.06 847 25.01 14.2 57.5 80 10.9 51.6 -83.4 -3.283
10:35 1018 30.06 847 25.01 14.2 57.5 78 10.5 50.9 -83.3 -3.28
10:36 1018 30.06 847 25.01 14.1 57.4 79 10.6 51.1 -83.3 -3.28
10:37 1018 30.06 847 25.01 14.1 57.4 78 10.4 50.7 -83.3 -3.28
10:38 1018 30.06 847 25.01 14.2 57.6 77 10.2 50.4 -83.3 -3.28
10:39 1018 30.06 847 25.01 14.3 57.8 80 11 51.8 -83.3 -3.28
10:40 1018 30.06 847 25.01 14.5 58.2 75 10.2 50.4 -83.3 -3.28
10:41 1018 30.06 847 25.01 14.7 58.5 77 10.8 51.5 -83.4 -3.283
10:42 1018 30.06 847 25.01 14.9 58.9 75 10.6 51 -83.4 -3.283
10:43 1018 30.06 847 25.01 15.1 59.1 75 10.7 51.3 -83.4 -3.283
10:44 1018 30.06 847 25.01 15.2 59.3 69 9.6 49.4 -83.4 -3.283
10:45 1018 30.06 847 25.01 15.3 59.5 68 9.6 49.2 -83.5 -3.287
10:46 1018 30.06 847 25.01 15.3 59.6 67 9.3 48.7 -83.5 -3.287
10:47 1018 30.06 847 25.01 15.5 59.8 68 9.7 49.4 -83.5 -3.287
10:48 1018 30.06 847 25.01 15.7 60.2 68 9.9 49.9 -83.5 -3.287
10:49 1018 30.06 847 25.01 15.8 60.4 67 9.7 49.4 -83.5 -3.287
10:50 1018 30.06 847 25.01 15.9 60.6 68 10.1 50.1 -83.5 -3.287
10:51 1018 30.06 847 25.01 16 60.8 69 10.4 50.7 -83.4 -3.283
10:52 1018 30.06 847 25.01 16.2 61.1 61 8.8 47.9 -83.4 -3.283
10:53 1018 30.06 847 25.01 16.3 61.3 61 8.7 47.7 -83.4 -3.283
10:54 1018 30.06 847 25.01 16.1 61.1 67 10 50 -83.3 -3.28
10:55 1018 30.06 847 25.01 16.1 60.9 66 9.8 49.7 -83.3 -3.28
10:56 1018 30.06 847 25.01 16 60.9 70 10.5 51 -83.3 -3.28
10:57 1018 30.06 847 25.01 16 60.8 63 9 48.3 -83.3 -3.28
10:58 1018 30.06 847 25.01 15.9 60.7 66 9.7 49.5 -83.3 -3.28
10:59 1018 30.06 847 25.01 15.8 60.4 66 9.4 49 -83.2 -3.276
11:00 1018 30.06 847 25.01 15.8 60.5 66 9.5 49.2 -83.2 -3.276
11:01 1018 30.06 847 25.01 15.8 60.5 68 10 50 -83.2 -3.276
11:02 1018 30.06 847 25.01 15.8 60.4 64 9 48.2 -83.1 -3.272
11:03 1018 30.06 847 25.01 15.8 60.4 66 9.6 49.2 -83.1 -3.272
11:04 1018 30.06 847 25.01 15.9 60.7 62 8.8 47.9 -83.1 -3.272
11:05 1018 30.06 847 25.01 16.1 61 61 8.6 47.5 -83.1 -3.272
11:06 1018 30.06 847 25.01 16.3 61.4 62 9.1 48.3 -83.1 -3.272
11:07 1018 30.06 847 25.01 16.5 61.7 60 8.8 47.8 -83 -3.268
11:08 1018 30.06 847 25.01 16.6 61.8 60 8.7 47.7 -83 -3.268
11:09 1018 30.06 847 25.01 16.6 61.9 60 8.9 48 -82.9 -3.264
11:10 1018 30.06 847 25.01 16.6 61.9 56 8 46.4 -82.9 -3.264
11:11 1018 30.06 847 25.01 16.7 62.1 65 10.1 50.3 -82.9 -3.264
11:12 1018 30.06 847 25.01 16.9 62.3 60 9.1 48.4 -82.8 -3.26
11:13 1018 30.06 847 25.01 16.9 62.3 70 11.4 52.6 -82.8 -3.26
11:14 1018 30.06 847 25.01 16.9 62.5 58 8.6 47.5 -82.8 -3.26
11:15 1018 30.06 847 25.01 16.9 62.3 60 9.2 48.5 -82.7 -3.256
11:16 1018 30.06 847 25.01 16.7 62.1 59 8.7 47.7 -82.7 -3.256
11:17 1018 30.06 847 25.01 16.6 61.9 57 8.2 46.8 -82.7 -3.256
11:18 1018 30.06 847 25.01 16.7 62 60 9 48.2 -82.6 -3.252
11:19 1018 30.06 847 25.01 16.8 62.2 58 8.5 47.4 -82.6 -3.252
11:20 1018 30.06 847 25.01 16.9 62.4 56 8.2 46.8 -82.5 -3.248
11:21 1018 30.06 847 25.01 16.9 62.3 56 8.2 46.8 -82.5 -3.248
11:22 1018 30.06 847 25.01 16.9 62.4 58 8.8 47.8 -82.4 -3.244
11:23 1018 30.06 847 25.01 17 62.5 57 8.5 47.4 -82.4 -3.244
11:24 1018 30.06 847 25.01 17 62.6 61 9.5 49.1 -82.3 -3.24
11:25 1018 30.06 847 25.01 17.1 62.7 64 10.2 50.3 -82.3 -3.24
11:26 1018 30.06 847 25.01 17.3 63.1 66 10.8 51.5 -82.2 -3.236
11:27 1018 30.06 847 25.01 17.5 63.5 58 9.2 48.5 -82.2 -3.236
11:28 1018 30.06 847 25.01 17.7 63.8 58 9.5 49.1 -82.1 -3.232
11:29 1018 30.06 847 25.01 17.8 64.1 56 9.1 48.3 -82.1 -3.232
11:30 1018 30.06 847 25.01 18 64.4 53 8.5 47.3 -82 -3.228
11:31 1018 30.06 847 25.01 18 64.4 55 8.9 48 -82 -3.228
11:32 1018 30.06 847 25.01 17.8 64.1 55 8.8 47.8 -81.9 -3.224
11:33 1018 30.06 847 25.01 17.7 63.9 56 9 48.1 -81.9 -3.224
11:34 1018 30.06 847 25.01 17.6 63.7 53 8 46.4 -81.8 -3.22
11:35 1018 30.06 847 25.01 17.6 63.7 53 8 46.3 -81.8 -3.22
11:36 1018 30.06 847 25.01 17.7 63.8 62 10.4 50.7 -81.7 -3.217
11:37 1018 30.06 847 25.01 17.9 64.2 53 8.4 47.1 -81.6 -3.213
11:38 1018 30.06 847 25.01 17.9 64.3 54 8.6 47.5 -81.6 -3.213
11:39 1018 30.06 847 25.01 17.9 64.3 53 8.3 47 -81.5 -3.209
11:40 1018 30.06 847 25.01 18.1 64.5 55 8.9 48.1 -81.4 -3.205
11:41 1018 30.06 847 25.01 18.4 65 51 8.2 46.8 -81.4 -3.205
11:42 1018 30.06 847 25.01 18.4 65.1 53 8.7 47.6 -81.3 -3.201
11:43 1018 30.06 847 25.01 18.4 65.1 55 9.4 48.9 -81.2 -3.197
11:44 1018 30.06 847 25.01 18.4 65 55 9.3 48.7 -81.1 -3.193
11:45 1018 30.06 847 25.01 18.4 65 54 9 48.2 -81.1 -3.193
11:46 1018 30.06 847 25.01 18.5 65.3 51 8.4 47.1 -81 -3.189
11:47 1018 30.06 847 25.01 18.6 65.6 55 9.6 49.2 -80.9 -3.185
11:48 1018 30.06 847 25.01 18.7 65.6 58 10.4 50.7 -80.8 -3.181
11:49 1018 30.06 847 25.01 18.8 65.8 52 8.8 47.9 -80.7 -3.177
11:50 1018 30.06 847 25.01 18.8 65.9 51 8.6 47.4 -80.6 -3.173
11:51 1018 30.06 847 25.01 18.9 66 51 8.7 47.6 -80.5 -3.169
11:52 1018 30.06 847 25.01 19.1 66.3 52 9.1 48.3 -80.4 -3.165
11:53 1018 30.06 847 25.01 19.2 66.6 51 8.9 48 -80.3 -3.161
11:54 1018 30.06 847 25.01 19.4 66.9 57 10.8 51.5 -80.2 -3.157
11:55 1018 30.06 847 25.01 19.4 67 56 10.5 50.9 -80.1 -3.154
11:56 1018 30.06 847 25.01 19.6 67.2 53 9.9 49.8 -80 -3.15
11:57 1018 30.06 847 25.01 19.6 67.3 50 8.9 48 -79.9 -3.146
11:58 1018 30.06 847 25.01 19.5 67.1 48 8.4 47.2 -79.8 -3.142
11:59 1018 30.06 847 25.01 19.4 66.8 50 8.7 47.7 -79.7 -3.138
12:00 1018 30.06 847 25.01 19.2 66.6 49 8.5 47.3 -79.6 -3.134
12:01 1018 30.06 847 25.01 19.4 66.8 55 10.3 50.5 -79.5 -3.13
12:02 1018 30.06 847 25.01 19.5 67.1 53 9.9 49.8 -79.4 -3.126
12:03 1018 30.06 847 25.01 19.6 67.3 50 9.1 48.4 -79.3 -3.122
12:04 1018 30.06 847 25.01 19.5 67.1 51 9.2 48.6 -79.2 -3.118
12:05 1018 30.06 847 25.01 19.5 67.1 55 10.3 50.6 -79.1 -3.114
12:06 1018 30.06 847 25.01 19.3 66.7 53 9.6 49.3 -79 -3.11
12:07 1018 30.06 847 25.01 19.1 66.4 52 9 48.2 -79 -3.11
12:08 1018 30.06 847 25.01 19 66.2 51 8.9 48 -78.9 -3.106
12:09 1018 30.06 847 25.01 19.1 66.4 52 9.1 48.3 -78.8 -3.102
12:10 1018 30.06 847 25.01 19.3 66.7 50 8.8 47.8 -78.7 -3.098
12:11 1018 30.06 847 25.01 19.3 66.8 51 9.2 48.5 -78.6 -3.094
12:12 1017 30.03 847 25.01 19.3 66.7 48 8 46.3 -78.5 -3.091
12:13 1017 30.03 847 25.01 19.2 66.6 48 8 46.5 -78.5 -3.091
12:14 1017 30.03 847 25.01 19.1 66.4 49 8.4 47.1 -78.4 -3.087
12:15 1017 30.03 847 25.01 19.1 66.4 54 9.6 49.4 -78.3 -3.083
12:16 1017 30.03 847 25.01 19.3 66.7 46 7.5 45.5 -78.2 -3.079
12:17 1017 30.03 847 25.01 19.4 66.9 48 8.4 47.1 -78.1 -3.075
12:18 1017 30.03 847 25.01 19.4 67 49 8.6 47.5 -78.1 -3.075
12:19 1017 30.03 847 25.01 19.5 67.1 48 8.4 47.1 -78 -3.071
12:20 1017 30.03 847 25.01 19.5 67.1 45 7.3 45.1 -77.9 -3.067
12:21 1017 30.03 847 25.01 19.4 66.8 49 8.6 47.4 -77.9 -3.067
12:22 1017 30.03 846 24.98 19.3 66.7 47 7.9 46.2 -77.8 -3.063
12:23 1017 30.03 846 24.98 19.3 66.8 52 9.4 48.9 -77.7 -3.059
12:24 1017 30.03 846 24.98 19.5 67.1 55 10.3 50.5 -77.6 -3.055
12:25 1017 30.03 846 24.98 19.7 67.4 49 8.8 47.8 -77.5 -3.051
12:26 1017 30.03 846 24.98 19.8 67.6 49 9 48.1 -77.5 -3.051
12:27 1017 30.03 846 24.98 19.7 67.4 48 8.4 47.1 -77.4 -3.047
12:28 1017 30.03 846 24.98 19.6 67.2 50 8.9 48.1 -77.3 -3.043
12:29 1017 30.03 846 24.98 19.6 67.3 46 7.8 46.1 -77.3 -3.043
12:30 1017 30.03 846 24.98 19.6 67.4 45 7.5 45.6 -77.2 -3.039
12:31 1017 30.03 846 24.98 19.7 67.4 48 8.5 47.2 -77.1 -3.035
12:32 1017 30.03 846 24.98 19.7 67.5 43 6.9 44.5 -77.1 -3.035
12:33 1017 30.03 846 24.98 19.7 67.5 43 6.8 44.3 -77 -3.031
12:34 1017 30.03 846 24.98 19.6 67.3 48 8.5 47.3 -77 -3.031
12:35 1017 30.03 846 24.98 19.7 67.4 51 9.5 49.1 -76.9 -3.028
12:36 1017 30.03 846 24.98 19.8 67.7 51 9.6 49.3 -76.8 -3.024
12:37 1017 30.03 846 24.98 20.1 68.2 45 7.8 46.1 -76.7 -3.02
12:38 1017 30.03 846 24.98 20.3 68.5 47 8.6 47.5 -76.6 -3.016
12:39 1017 30.03 846 24.98 20.2 68.4 45 8 46.3 -76.6 -3.016
12:40 1017 30.03 846 24.98 20 68 45 7.9 46.1 -76.6 -3.016
12:41 1017 30.03 846 24.98 19.9 67.8 45 7.6 45.7 -76.5 -3.012
12:42 1017 30.03 846 24.98 20 68 54 10.6 51 -76.4 -3.008
12:43 1017 30.03 846 24.98 20.2 68.3 48 8.8 47.9 -76.4 -3.008
12:44 1017 30.03 846 24.98 20.3 68.5 46 8.5 47.4 -76.3 -3.004
12:45 1017 30.03 846 24.98 20.3 68.6 43 7.5 45.6 -76.2 -3
12:46 1017 30.03 846 24.98 20.1 68.2 49 9.3 48.8 -76.2 -3
12:47 1017 30.03 846 24.98 20.1 68.1 51 9.8 49.6 -76.1 -2.996
12:48 1017 30.03 846 24.98 20.2 68.3 47 8.6 47.6 -76 -2.992
12:49 1017 30.03 846 24.98 20.4 68.7 44 7.8 46 -75.9 -2.988
12:50 1017 30.03 846 24.98 20.6 69.1 49 9.6 49.3 -75.9 -2.988
12:51 1017 30.03 846 24.98 20.7 69.3 43 8 46.4 -75.8 -2.984
12:52 1017 30.03 846 24.98 20.7 69.3 41 7.1 44.9 -75.8 -2.984
12:53 1017 30.03 846 24.98 20.7 69.2 42 7.6 45.7 -75.7 -2.98
12:54 1017 30.03 846 24.98 20.7 69.3 45 8.6 47.5 -75.6 -2.976
12:55 1017 30.03 846 24.98 20.9 69.6 42 7.6 45.7 -75.6 -2.976
12:56 1017 30.03 846 24.98 21 69.7 43 8.1 46.6 -75.5 -2.972
12:57 1017 30.03 846 24.98 21 69.8 39 6.5 43.8 -75.4 -2.969
12:58 1017 30.03 846 24.98 21.1 69.9 39 6.8 44.2 -75.4 -2.969
12:59 1017 30.03 846 24.98 21.1 69.9 44 8.4 47.2 -75.3 -2.965
13:00 1017 30.03 846 24.98 21.3 70.3 42 8 46.4 -75.2 -2.961
13:01 1017 30.03 846 24.98 21.5 70.6 41 7.8 46.1 -75.1 -2.957
13:02 1017 30.03 846 24.98 21.4 70.6 42 8.1 46.5 -75.1 -2.957
13:03 1017 30.03 846 24.98 21.1 70 43 8.4 47 -75 -2.953
13:04 1017 30.03 846 24.98 21 69.7 42 7.6 45.7 -75 -2.953
13:05 1017 30.03 846 24.98 20.9 69.6 42 7.6 45.6 -74.9 -2.949
13:06 1017 30.03 846 24.98 20.9 69.5 42 7.5 45.5 -74.9 -2.949
13:07 1017 30.03 846 24.98 20.8 69.4 41 7.2 45 -74.8 -2.945
13:08 1017 30.03 846 24.98 21 69.7 48 9.8 49.6 -74.7 -2.941
13:09 1017 30.03 846 24.98 21.1 69.9 43 8.2 46.8 -74.6 -2.937
13:10 1017 30.03 846 24.98 21.1 69.9 40 7.2 44.9 -74.6 -2.937
13:11 1017 30.03 846 24.98 21.1 69.9 51 10.8 51.5 -74.5 -2.933
13:12 1017 30.03 846 24.98 21.1 70.1 44 8.5 47.3 -74.5 -2.933
13:13 1017 30.03 846 24.98 21 69.8 49 9.9 49.8 -74.4 -2.929
13:14 1017 30.03 846 24.98 21 69.8 41 7.5 45.5 -74.4 -2.929
13:15 1017 30.03 846 24.98 20.9 69.6 45 8.5 47.4 -74.3 -2.925
13:16 1017 30.03 846 24.98 20.8 69.5 42 7.5 45.5 -74.3 -2.925
13:17 1017 30.03 846 24.98 20.9 69.6 44 8.4 47.2 -74.2 -2.921
13:18 1017 30.03 846 24.98 20.8 69.5 51 10.6 51 -74.2 -2.921
13:19 1017 30.03 846 24.98 20.8 69.5 39 6.6 43.9 -74.1 -2.917
13:20 1017 30.03 846 24.98 20.7 69.3 43 7.9 46.3 -74.1 -2.917
13:21 1017 30.03 846 24.98 20.7 69.3 44 8.3 46.9 -74.1 -2.917
13:22 1017 30.03 846 24.98 20.8 69.4 44 8.2 46.8 -74 -2.913
13:23 1017 30.03 846 24.98 20.9 69.6 47 9.5 49 -74 -2.913
13:24 1017 30.03 846 24.98 21.1 69.9 45 8.9 48 -73.9 -2.909
13:25 1017 30.03 846 24.98 21.1 69.9 41 7.4 45.3 -73.9 -2.909
13:26 1017 30.03 846 24.98 21.1 69.9 46 9.2 48.5 -73.9 -2.909
13:27 1017 30.03 846 24.98 21.2 70.2 44 8.7 47.7 -73.8 -2.906
13:28 1017 30.03 846 24.98 21.3 70.3 44 8.6 47.5 -73.8 -2.906
13:29 1017 30.03 846 24.98 21.4 70.5 44 8.8 47.8 -73.7 -2.902
13:30 1017 30.03 846 24.98 21.4 70.5 41 7.7 45.9 -73.7 -2.902
13:31 1017 30.03 846 24.98 21.3 70.3 41 7.6 45.7 -73.7 -2.902
13:32 1017 30.03 846 24.98 21.1 70 41 7.7 45.8 -73.7 -2.902
13:33 1017 30.03 846 24.98 21.1 70 43 8.4 47.1 -73.7 -2.902
13:34 1017 30.03 846 24.98 21.4 70.4 45 9 48.2 -73.7 -2.902
13:35 1017 30.03 846 24.98 21.5 70.6 45 9.3 48.7 -73.6 -2.898
13:36 1017 30.03 846 24.98 21.5 70.7 41 7.9 46.2 -73.6 -2.898
13:37 1017 30.03 846 24.98 21.5 70.7 44 9 48.2 -73.6 -2.898
13:38 1016 30 846 24.98 21.4 70.5 50 10.8 51.5 -73.6 -2.898
13:39 1016 30 846 24.98 21.4 70.5 41 7.8 46.1 -73.5 -2.894
13:40 1017 30.03 846 24.98 21.3 70.4 46 9.5 49.1 -73.5 -2.894
13:41 1017 30.03 846 24.98 21.3 70.3 41 7.7 45.8 -73.5 -2.894
13:42 1017 30.03 846 24.98 21.3 70.3 42 7.9 46.2 -73.5 -2.894
13:43 1016 30 846 24.98 21.3 70.3 50 10.6 51.1 -73.5 -2.894
13:44 1016 30 846 24.98 21.4 70.5 51 10.9 51.6 -73.5 -2.894
13:45 1016 30 846 24.98 21.5 70.7 42 8 46.5 -73.4 -2.89
13:46 1016 30 846 24.98 21.5 70.6 40 7.3 45.1 -73.4 -2.89
13:47 1016 30 846 24.98 21.4 70.5 44 8.7 47.7 -73.4 -2.89
13:48 1016 30 846 24.98 21.3 70.4 46 9.5 49.1 -73.4 -2.89
13:49 1016 30 846 24.98 21.4 70.6 48 10.1 50.2 -73.3 -2.886
13:50 1016 30 846 24.98 21.5 70.8 40 7.5 45.5 -73.3 -2.886
13:51 1016 30 846 24.98 21.6 70.8 43 8.6 47.5 -73.3 -2.886
13:52 1016 30 846 24.98 21.5 70.7 41 8 46.3 -73.3 -2.886
13:53 1016 30 846 24.98 21.4 70.4 46 9.5 49.2 -73.3 -2.886
13:54 1016 30 846 24.98 21.2 70.2 44 8.6 47.5 -73.3 -2.886
13:55 1016 30 846 24.98 21.3 70.3 46 9.4 48.9 -73.3 -2.886
13:56 1016 30 846 24.98 21.4 70.5 40 7.3 45.2 -73.2 -2.882
13:57 1016 30 846 24.98 21.4 70.4 39 7 44.6 -73.2 -2.882
13:58 1016 30 846 24.98 21.2 70.2 42 8.1 46.6 -73.2 -2.882
13:59 1016 30 846 24.98 21.3 70.4 44 8.9 48 -73.2 -2.882
14:00 1016 30 846 24.98 21.4 70.5 45 9.2 48.6 -73.2 -2.882
14:01 1016 30 846 24.98 21.4 70.5 44 8.7 47.7 -73.1 -2.878
14:02 1016 30 846 24.98 21.4 70.5 42 8 46.4 -73.1 -2.878
14:03 1016 30 846 24.98 21.4 70.5 43 8.4 47.1 -73.1 -2.878
14:04 1016 30 845 24.95 21.3 70.3 45 9.1 48.5 -73.1 -2.878
14:05 1016 30 846 24.98 21.3 70.4 41 7.8 46.1 -73.1 -2.878
14:06 1016 30 845 24.95 21.4 70.5 43 8.6 47.5 -73.1 -2.878
14:07 1016 30 845 24.95 21.5 70.6 45 9.2 48.6 -73.1 -2.878
14:08 1016 30 845 24.95 21.5 70.7 45 9.1 48.4 -73 -2.874
14:09 1016 30 845 24.95 21.5 70.6 41 7.9 46.2 -73 -2.874
14:10 1016 30 845 24.95 21.4 70.5 44 8.9 48 -73 -2.874
14:11 1016 30 845 24.95 21.5 70.7 49 10.5 50.8 -73 -2.874
14:12 1016 30 845 24.95 21.7 71.1 41 7.9 46.3 -73 -2.874
14:13 1016 30 845 24.95 21.7 71 47 10 49.9 -72.9 -2.87
14:14 1016 30 845 24.95 21.5 70.8 45 9.2 48.5 -72.9 -2.87
14:15 1016 30 845 24.95 21.6 70.8 48 10.3 50.6 -72.9 -2.87
14:16 1016 30 845 24.95 21.7 71.1 39 7.3 45.1 -72.9 -2.87
14:17 1016 30 845 24.95 21.8 71.2 42 8.4 47.2 -72.9 -2.87
14:18 1016 30 845 24.95 21.6 70.8 46 9.6 49.2 -72.8 -2.866
14:19 1016 30 845 24.95 21.6 70.8 47 10 50.1 -72.8 -2.866
14:20 1016 30 845 24.95 21.6 70.9 41 8.1 46.6 -72.8 -2.866
14:21 1016 30 845 24.95 21.5 70.7 41 7.8 46.1 -72.7 -2.862
14:22 1016 30 845 24.95 21.4 70.5 43 8.6 47.5 -72.7 -2.862
14:23 1016 30 845 24.95 21.5 70.6 41 8 46.3 -72.7 -2.862
14:24 1016 30 845 24.95 21.5 70.8 46 9.5 49.1 -72.7 -2.862
14:25 1016 30 845 24.95 21.7 71.1 45 9.5 49.1 -72.6 -2.858
14:26 1016 30 845 24.95 21.9 71.3 40 7.8 46 -72.6 -2.858
14:27 1016 30 845 24.95 21.7 71 42 8.4 47.1 -72.5 -2.854
14:28 1016 30 845 24.95 21.6 70.8 43 8.5 47.3 -72.5 -2.854
14:29 1016 30 845 24.95 21.6 71 46 9.6 49.2 -72.5 -2.854
14:30 1016 30 845 24.95 21.8 71.2 41 8.2 46.7 -72.4 -2.85
14:31 1016 30 845 24.95 21.9 71.4 43 8.8 47.8 -72.3 -2.846
14:32 1016 30 845 24.95 21.9 71.5 40 7.9 46.3 -72.3 -2.846
14:33 1016 30 845 24.95 22 71.6 43 9.1 48.3 -72.3 -2.846
14:34 1016 30 845 24.95 22 71.5 41 8.1 46.6 -72.2 -2.843
14:35 1016 30 845 24.95 22 71.5 40 7.9 46.2 -72.2 -2.843
14:36 1016 30 845 24.95 21.9 71.4 39 7.6 45.6 -72.2 -2.843
14:37 1016 30 845 24.95 21.9 71.3 45 9.7 49.4 -72.1 -2.839
14:38 1016 30 845 24.95 21.9 71.4 43 9 48.2 -72.1 -2.839
14:39 1016 30 845 24.95 22 71.5 45 9.6 49.4 -72 -2.835
14:40 1016 30 845 24.95 22 71.6 41 8.3 46.9 -72 -2.835
14:41 1016 30 845 24.95 22 71.6 41 8.5 47.2 -72 -2.835
14:42 1016 30 845 24.95 22.1 71.7 40 8.2 46.7 -71.9 -2.831
14:43 1016 30 845 24.95 22.1 71.7 39 7.5 45.5 -71.9 -2.831
14:44 1016 30 845 24.95 22 71.7 41 8.2 46.7 -71.8 -2.827
14:45 1016 30 845 24.95 22.1 71.7 42 8.8 47.9 -71.8 -2.827
14:46 1016 30 845 24.95 22.2 71.9 43 9 48.2 -71.7 -2.823
14:47 1016 30 845 24.95 22.3 72.1 50 11.5 52.8 -71.6 -2.819
14:48 1016 30 845 24.95 22.6 72.7 46 10.5 50.9 -71.6 -2.819
14:49 1016 30 845 24.95 22.7 72.8 41 9.1 48.4 -71.6 -2.819
14:50 1016 30 845 24.95 22.7 72.8 38 8 46.4 -71.5 -2.815
14:51 1016 30 845 24.95 22.6 72.8 37 7.6 45.6 -71.4 -2.811
14:52 1016 30 845 24.95 22.6 72.6 42 9.3 48.7 -71.4 -2.811
14:53 1016 30 845 24.95 22.6 72.6 44 10 50 -71.4 -2.811
14:54 1016 30 845 24.95 22.5 72.6 40 8.3 47 -71.3 -2.807
14:55 1016 30 845 24.95 22.4 72.3 38 7.4 45.3 -71.2 -2.803
14:56 1016 30 845 24.95 22.4 72.3 40 8.2 46.7 -71.1 -2.799
14:57 1016 30 845 24.95 22.5 72.5 42 9.2 48.6 -71.1 -2.799
14:58 1016 30 845 24.95 22.6 72.7 40 8.4 47 -71 -2.795
14:59 1016 30 845 24.95 22.7 72.9 37 7.6 45.8 -70.9 -2.791
15:00 1016 30 845 24.95 22.8 73 38 8 46.5 -70.9 -2.791
15:01 1016 30 845 24.95 22.9 73.1 43 9.9 49.8 -70.8 -2.787
15:02 1016 30 845 24.95 23 73.4 42 9.5 49 -70.7 -2.783
15:03 1016 30 845 24.95 22.9 73.3 43 9.7 49.5 -70.7 -2.783
15:04 1016 30 845 24.95 22.9 73.2 48 11.4 52.5 -70.6 -2.78
15:05 1016 30 845 24.95 23.1 73.5 36 7.4 45.3 -70.5 -2.776
15:06 1016 30 845 24.95 23 73.4 48 11.7 53 -70.4 -2.772
15:07 1016 30 845 24.95 23.1 73.5 36 7.5 45.5 -70.4 -2.772
15:08 1016 30 845 24.95 23.1 73.6 39 8.7 47.7 -70.3 -2.768
15:09 1016 30 845 24.95 23.1 73.6 42 9.5 49.2 -70.2 -2.764
15:10 1016 30 845 24.95 23.1 73.6 37 7.7 45.9 -70.1 -2.76
15:11 1016 30 845 24.95 23.1 73.5 42 9.5 49.1 -70 -2.756
15:12 1016 30 845 24.95 23.1 73.6 42 9.6 49.3 -69.89 -2.752
15:13 1016 30 845 24.95 23.2 73.7 37 8.1 46.5 -69.81 -2.748
15:14 1016 30 845 24.95 23.1 73.6 42 9.7 49.4 -69.75 -2.746
15:15 1016 30 845 24.95 23 73.3 36 7.4 45.3 -69.66 -2.743
15:16 1016 30 845 24.95 22.9 73.2 41 9.3 48.7 -69.59 -2.74
15:17 1016 30 845 24.95 23 73.3 41 9 48.3 -69.48 -2.735
15:18 1016 30 845 24.95 23 73.3 37 7.5 45.6 -69.41 -2.733
15:19 1016 30 845 24.95 22.9 73.1 41 9.1 48.5 -69.35 -2.73
15:20 1016 30 845 24.95 22.8 73 38 8.1 46.6 -69.26 -2.727
15:21 1016 30 845 24.95 22.7 72.8 38 7.7 45.8 -69.17 -2.723
15:22 1016 30 845 24.95 22.7 72.9 39 8.3 46.9 -69.07 -2.719
15:23 1016 30 845 24.95 22.9 73.2 36 7.3 45.1 -68.95 -2.715
15:24 1016 30 845 24.95 23 73.5 41 9.2 48.6 -68.85 -2.711
15:25 1016 30 845 24.95 23.1 73.6 38 8 46.5 -68.75 -2.707
15:26 1016 30 845 24.95 23.2 73.7 35 6.9 44.3 -68.66 -2.703
15:27 1016 30 845 24.95 23.1 73.6 36 7.5 45.5 -68.57 -2.7
15:28 1016 30 845 24.95 23.2 73.8 34 6.9 44.3 -68.47 -2.696
15:29 1016 30 845 24.95 23.3 74 38 8.2 46.8 -68.38 -2.692
15:30 1016 30 845 24.95 23.4 74 34 6.8 44.2 -68.28 -2.688
15:31 1016 30 845 24.95 23.3 73.9 37 8 46.4 -68.18 -2.684
15:32 1016 30 845 24.95 23.3 73.9 42 9.9 49.9 -68.09 -2.681
15:33 1016 30 845 24.95 23.4 74 35 7.4 45.3 -67.98 -2.676
15:34 1016 30 845 24.95 23.5 74.3 36 7.8 46 -67.87 -2.672
15:35 1016 30 845 24.95 23.6 74.5 37 8.3 46.9 -67.74 -2.667
15:36 1016 30 845 24.95 23.7 74.6 34 7.1 44.8 -67.64 -2.663
15:37 1016 30 845 24.95 23.6 74.5 33 6.6 43.9 -67.53 -2.659
15:38 1016 30 845 24.95 23.6 74.4 40 9.3 48.8 -67.41 -2.654
15:39 1016 30 845 24.95 23.5 74.3 37 8.1 46.5 -67.3 -2.65
15:40 1016 30 845 24.95 23.5 74.3 40 9.2 48.5 -67.2 -2.646
15:41 1016 30 845 24.95 23.6 74.4 35 7.3 45.1 -67.1 -2.642
15:42 1016 30 845 24.95 23.6 74.5 44 10.8 51.5 -66.99 -2.637
15:43 1016 30 845 24.95 23.7 74.7 43 10.6 51.2 -66.88 -2.633
15:44 1016 30 845 24.95 23.7 74.7 35 7.5 45.5 -66.78 -2.629
15:45 1016 30 845 24.95 23.6 74.5 35 7.3 45.1 -66.66 -2.624
15:46 1016 30 845 24.95 23.5 74.3 35 7.4 45.3 -66.48 -2.617
15:47 1016 30 845 24.95 23.5 74.3 37 8.2 46.7 -66.27 -2.609
15:48 1016 30 845 24.95 23.5 74.3 38 8.7 47.6 -66.18 -2.606
15:49 1016 30 845 24.95 23.5 74.3 36 7.7 45.9 -66.09 -2.602
15:50 1016 30 845 24.95 23.6 74.5 36 8 46.4 -66 -2.598
15:51 1016 30 845 24.95 23.7 74.6 34 6.9 44.4 -65.92 -2.595
15:52 1016 30 845 24.95 23.7 74.6 37 8.4 47.1 -65.84 -2.592
15:53 1016 30 845 24.95 23.8 74.8 44 10.9 51.6 -65.75 -2.589
15:54 1016 30 845 24.95 23.9 75.1 35 7.8 46.1 -65.67 -2.585
15:55 1016 30 845 24.95 23.9 75.1 33 6.8 44.3 -65.57 -2.581
15:56 1016 30 845 24.95 23.8 74.8 34 7.4 45.3 -65.49 -2.578
15:57 1016 30 845 24.95 23.8 74.8 39 9.3 48.7 -65.4 -2.575
15:58 1015 29.97 845 24.95 23.8 74.9 36 8.3 46.9 -65.31 -2.571
15:59 1015 29.97 845 24.95 24 75.1 35 7.9 46.2 -65.2 -2.567
16:00 1015 29.97 845 24.95 24.1 75.3 34 7.6 45.7 -65.09 -2.563
16:01 1015 29.97 845 24.95 24.2 75.6 39 9.4 49 -64.98 -2.558
16:02 1015 29.97 845 24.95 24.4 75.9 38 9.5 49.1 -64.88 -2.554
16:03 1015 29.97 845 24.95 24.3 75.8 32 6.7 44 -64.8 -2.551
16:04 1015 29.97 845 24.95 24.1 75.3 37 8.6 47.4 -64.71 -2.548
16:05 1015 29.97 845 24.95 23.9 75.1 37 8.4 47.1 -64.58 -2.543
16:06 1015 29.97 845 24.95 24 75.2 33 6.9 44.4 -64.45 -2.537
16:07 1015 29.97 845 24.95 24 75.2 33 7.2 44.9 -64.34 -2.533
16:08 1015 29.97 845 24.95 24 75.3 37 8.5 47.4 -64.25 -2.53
16:09 1015 29.97 845 24.95 24.1 75.3 37 8.7 47.7 -64.15 -2.526
16:10 1015 29.97 845 24.95 24.1 75.4 33 7.1 44.7 -64.02 -2.52
16:11 1015 29.97 845 24.95 24 75.3 36 8.4 47 -63.91 -2.516
16:12 1015 29.97 845 24.95 24 75.2 40 9.8 49.7 -63.81 -2.512
16:13 1015 29.97 845 24.95 24.1 75.4 33 7.1 44.7 -63.68 -2.507
16:14 1015 29.97 845 24.95 24.1 75.4 32 6.7 44.1 -63.57 -2.503
16:15 1015 29.97 845 24.95 24 75.2 35 7.8 46 -63.44 -2.498
16:16 1015 29.97 845 24.95 24.1 75.4 34 7.6 45.6 -63.32 -2.493
16:17 1015 29.97 845 24.95 24.3 75.7 38 9.3 48.8 -63.24 -2.49
16:18 1015 29.97 845 24.95 24.5 76.2 37 9 48.2 -63.24 -2.49
16:19 1015 29.97 845 24.95 24.8 76.6 32 7.3 45.2 -63.45 -2.498
16:20 1015 29.97 845 24.95 25 77 36 9.1 48.4 -64.03 -2.521
16:21 1015 29.97 845 24.95 24.9 76.8 39 10.1 50.3 -65.16 -2.565
16:22 1015 29.97 845 24.95 24.8 76.6 33 7.8 46 -66.7 -2.626
16:23 1015 29.97 845 24.95 24.6 76.4 32 7 44.5 -67.88 -2.672
16:24 1015 29.97 845 24.95 24.6 76.3 32 7 44.6 -69.19 -2.724
16:25 1016 30 845 24.95 24.5 76.1 32 7.2 44.9 -70.2 -2.764
16:26 1016 30 845 24.95 24.5 76 35 8.3 46.9 -70.4 -2.772
16:27 1016 30 845 24.95 24.4 76 37 9.1 48.4 -70.1 -2.76
16:28 1016 30 845 24.95 24.4 75.8 36 8.5 47.2 -70.9 -2.791
16:29 1016 30 845 24.95 24.3 75.7 38 9.3 48.8 -71.4 -2.811
16:30 1016 30 845 24.95 24.1 75.4 40 9.7 49.5 -71.3 -2.807
16:31 1016 30 845 24.95 24.1 75.5 43 10.8 51.5 -73.5 -2.894
16:32 1016 30 845 24.95 24.1 75.4 37 8.8 47.8 -81.6 -3.213
16:33 1016 30 845 24.95 24 75.2 40 9.8 49.6 -82.9 -3.264
16:34 1016 30 845 24.95 23.8 74.9 39 9.2 48.6 -78.5 -3.091
16:35 1015 29.97 845 24.95 23.7 74.7 36 8 46.4 -73.8 -2.906
16:36 1015 29.97 845 24.95 23.6 74.5 36 7.7 45.9 -70.2 -2.764
16:37 1015 29.97 845 24.95 23.5 74.2 39 8.8 47.9 -67.9 -2.673
16:38 1016 30 845 24.95 23.3 74 35 7.2 45 -66.46 -2.617
16:39 1016 30 845 24.95 23.4 74.1 35 7.1 44.8 -65.85 -2.593
16:40 1016 30 845 24.95 23.6 74.4 39 8.9 48 -65.84 -2.592
16:41 1016 30 845 24.95 23.8 74.9 42 10.2 50.3 -65.81 -2.591
16:42 1016 30 845 24.95 24.1 75.3 34 7.3 45.2 -65.64 -2.584
16:43 1016 30 845 24.95 24.3 75.8 39 9.8 49.6 -65.29 -2.57
16:44 1016 30 845 24.95 24.4 75.9 35 8.2 46.7 -64.88 -2.554
16:45 1016 30 845 24.95 24.3 75.7 33 7.3 45.2 -64.45 -2.537
16:46 1016 30 845 24.95 24.3 75.7 36 8.4 47.2 -64.12 -2.524
16:47 1016 30 845 24.95 24.4 75.9 41 10.5 50.9 -63.9 -2.516
16:48 1016 30 845 24.95 24.3 75.8 43 11.1 51.9 -63.75 -2.51
16:49 1016 30 845 24.95 24.3 75.7 40 10.1 50.3 -63.62 -2.505
16:50 1016 30 845 24.95 24.2 75.5 42 10.6 51.2 -63.51 -2.5
16:51 1016 30 845 24.95 24 75.2 40 9.6 49.3 -63.37 -2.495
16:52 1016 30 845 24.95 24 75.2 43 10.9 51.5 -63.39 -2.496
16:53 1016 30 845 24.95 23.9 75 41 9.9 49.9 -63.81 -2.512
16:54 1016 30 845 24.95 23.7 74.7 42 10.2 50.4 -64.65 -2.545
16:55 1016 30 845 24.95 23.5 74.3 35 7.3 45.2 -65.5 -2.579
16:56 1016 30 845 24.95 23.3 74 38 8.5 47.3 -67.63 -2.663
16:57 1016 30 845 24.95 23.2 73.7 44 10.5 50.9 -69.5 -2.736
16:58 1016 30 845 24.95 22.9 73.3 44 10.1 50.1 -70.4 -2.772
16:59 1016 30 845 24.95 22.7 72.8 39 8 46.5 -69.42 -2.733
17:00 1016 30 845 24.95 22.5 72.5 43 9.3 48.8 -70.8 -2.787
17:01 1016 30 845 24.95 22.3 72.1 43 9.4 48.9 -69.64 -2.742
17:02 1016 30 845 24.95 22.1 71.8 45 9.9 49.9 -71.4 -2.811
17:03 1016 30 845 24.95 21.9 71.4 48 10.4 50.7 -71.3 -2.807
17:04 1016 30 845 24.95 21.8 71.2 43 9 48.1 -100.7 -3.965
17:05 1016 30 845 24.95 21.8 71.2 46 9.8 49.6 -107.9 -4.248
17:06 1016 30 845 24.95 21.7 71 45 9.5 49.1 -97.8 -3.85
17:07 1016 30 845 24.95 21.6 70.9 43 8.5 47.3 -88.7 -3.492
17:08 1016 30 845 24.95 21.5 70.8 49 10.5 50.8 -85.9 -3.382
17:09 1016 30 845 24.95 21.3 70.4 48 9.9 49.9 -87.6 -3.449
17:10 1016 30 845 24.95 21.1 70 54 11.5 52.6 -88.1 -3.469
17:11 1016 30 845 24.95 20.9 69.5 54 11.4 52.5 -86.7 -3.413
17:12 1016 30 845 24.95 20.6 69.2 57 11.9 53.5 -83.5 -3.287
17:13 1016 30 845 24.95 20.5 68.8 54 11 51.9 -81.4 -3.205
17:14 1016 30 845 24.95 20.3 68.6 57 11.6 52.8 -79.1 -3.114
17:15 1016 30 845 24.95 20.2 68.3 60 12.3 54.2 -74.8 -2.945
17:16 1016 30 845 24.95 20 67.9 61 12.3 54.2 -71 -2.795
17:17 1016 30 845 24.95 19.8 67.6 63 12.7 54.8 -68.08 -2.68
17:18 1016 30 845 24.95 19.6 67.3 64 12.8 55.1 -66.58 -2.621
17:19 1016 30 845 24.95 19.6 67.2 67 13.3 55.9 -65.88 -2.594
17:20 1016 30 845 24.95 19.7 67.4 66 13.1 55.7 -65.27 -2.57
17:21 1016 30 845 24.95 19.9 67.8 67 13.6 56.4 -64.84 -2.553
17:22 1016 30 845 24.95 20.3 68.5 64 13.2 55.8 -64.72 -2.548
17:23 1016 30 845 24.95 20.7 69.3 62 13.4 56.1 -64.91 -2.556
17:24 1016 30 845 24.95 21.1 70 52 11.1 52 -65.29 -2.57
17:25 1016 30 845 24.95 21.4 70.4 55 12 53.6 -65.83 -2.592
17:26 1016 30 845 24.95 21.5 70.6 57 12.7 54.8 -66.33 -2.611
17:27 1016 30 845 24.95 21.5 70.8 57 12.9 55.1 -66.72 -2.627
17:28 1016 30 845 24.95 21.6 70.8 51 11.1 52 -67.12 -2.643
17:29 1016 30 845 24.95 21.5 70.8 51 11.1 51.9 -67.55 -2.659
17:30 1016 30 845 24.95 21.4 70.5 51 11.1 51.9 -67.85 -2.671
17:31 1016 30 845 24.95 21.2 70.2 56 12.2 54 -68.08 -2.68
17:32 1016 30 845 24.95 21.1 69.9 54 11.6 52.9 -68.25 -2.687
17:33 1016 30 845 24.95 20.8 69.4 51 10.4 50.7 -68.4 -2.693
17:34 1016 30 845 24.95 20.7 69.2 51 10.4 50.7 -68.54 -2.698
17:35 1016 30 845 24.95 20.5 68.9 57 11.8 53.2 -68.68 -2.704
17:36 1016 30 845 24.95 20.4 68.7 56 11.6 52.8 -68.83 -2.71
17:37 1016 30 845 24.95 20.3 68.5 57 11.5 52.6 -68.95 -2.715
17:38 1016 30 845 24.95 20.2 68.4 58 11.7 53 -69.08 -2.72
17:39 1016 30 845 24.95 20.2 68.3 60 12.3 54.2 -69.21 -2.725
17:40 1016 30 845 24.95 20.1 68.2 56 11.1 51.9 -69.34 -2.73
17:41 1016 30 845 24.95 20.1 68.3 57 11.4 52.4 -69.46 -2.735
17:42 1016 30 845 24.95 20.2 68.3 58 11.9 53.4 -69.56 -2.739
17:43 1016 30 845 24.95 20.2 68.3 60 12.3 54.1 -69.64 -2.742
17:44 1016 30 845 24.95 20.2 68.3 61 12.4 54.3 -69.72 -2.745
17:45 1016 30 845 24.95 20.2 68.3 61 12.7 54.8 -69.77 -2.747
17:46 1016 30 845 24.95 20.1 68.2 62 12.8 55 -69.82 -2.749
17:47 1016 30 845 24.95 20.1 68.1 62 12.8 55 -69.91 -2.752
17:48 1016 30 845 24.95 20 67.9 64 13.1 55.6 -70 -2.756
17:49 1016 30 845 24.95 19.9 67.8 67 13.7 56.7 -70.2 -2.764
17:50 1016 30 845 24.95 19.8 67.6 66 13.4 56 -70.5 -2.776
17:51 1016 30 845 24.95 19.7 67.5 65 13.2 55.7 -70.6 -2.78
17:52 1016 30 845 24.95 19.7 67.5 67 13.6 56.4 -70.9 -2.791
17:53 1016 30 845 24.95 19.7 67.5 71 14.4 57.9 -71 -2.795
17:54 1016 30 845 24.95 19.6 67.3 73 14.8 58.6 -71.1 -2.799
17:55 1016 30 845 24.95 19.5 67.1 75 15.1 59.1 -71.1 -2.799
17:56 1016 30 845 24.95 19.4 66.8 75 14.9 58.9 -71 -2.795
17:57 1016 30 845 24.95 19.3 66.7 75 14.8 58.6 -70.9 -2.791
17:58 1016 30 845 24.95 19.1 66.5 75 14.6 58.3 -70.9 -2.791
17:59 1016 30 845 24.95 19 66.3 75 14.5 58.1 -70.8 -2.787
18:00 1016 30 845 24.95 19 66.2 74 14.4 57.9 -70.7 -2.783
18:01 1016 30 845 24.95 18.9 66 74 14.2 57.6 -70.5 -2.776
18:02 1016 30 845 24.95 18.9 65.9 75 14.3 57.7 -70.2 -2.764
18:03 1016 30 845 24.95 18.8 65.9 75 14.4 57.9 -69.98 -2.755
18:04 1016 30 845 24.95 18.7 65.6 76 14.5 58.1 -69.74 -2.746
18:05 1016 30 845 24.95 18.6 65.5 76 14.4 57.9 -69.66 -2.743
18:06 1016 30 845 24.95 18.6 65.4 75 14.1 57.5 -69.78 -2.747
18:07 1016 30 845 24.95 18.5 65.4 77 14.5 58.2 -70 -2.756
18:08 1016 30 846 24.98 18.5 65.3 80 15 58.9 -70.2 -2.764
18:09 1016 30 846 24.98 18.3 65 81 15.1 59.1 -70.3 -2.768
18:10 1016 30 846 24.98 18.3 64.9 79 14.6 58.2 -70.3 -2.768
18:11 1016 30 846 24.98 18.2 64.7 79 14.6 58.2 -70.4 -2.772
18:12 1017 30.03 846 24.98 18.2 64.8 82 15.1 59.3 -70.5 -2.776
18:13 1017 30.03 846 24.98 18.1 64.7 66 11.8 53.2 -70.6 -2.78
18:14 1017 30.03 846 24.98 18.3 65 61 10.8 51.4 -70.9 -2.791
18:15 1017 30.03 846 24.98 18.4 65.1 61 10.8 51.4 -71.2 -2.803
18:16 1017 30.03 846 24.98 18.2 64.8 62 11 51.8 -71.2 -2.803
18:17 1017 30.03 846 24.98 18 64.4 65 11.5 52.7 -71.2 -2.803
18:18 1017 30.03 846 24.98 17.8 64.1 64 11.1 51.9 -71.3 -2.807
18:19 1017 30.03 846 24.98 17.8 64.1 59 9.9 49.7 -71.3 -2.807
18:20 1017 30.03 846 24.98 17.8 64.1 59 9.9 49.8 -71.3 -2.807
18:21 1017 30.03 846 24.98 17.7 63.9 60 10 49.9 -71.3 -2.807
18:22 1017 30.03 846 24.98 17.6 63.7 61 10.1 50.1 -71.4 -2.811
18:23 1017 30.03 846 24.98 17.5 63.5 63 10.6 51 -71.5 -2.815
18:24 1017 30.03 846 24.98 17.3 63.2 65 10.7 51.3 -71.7 -2.823
18:25 1017 30.03 846 24.98 17.1 62.8 66 10.9 51.6 -72 -2.835
18:26 1016 30 846 24.98 16.9 62.4 66 10.6 51.1 -72.8 -2.866
18:27 1016 30 846 24.98 16.7 62.1 67 10.6 51.1 -71.4 -2.811
18:28 1016 30 845 24.95 16.6 61.8 68 10.7 51.2 -69.85 -2.75
18:29 1016 30 845 24.95 16.5 61.6 68 10.6 51.1 -69.34 -2.73
18:30 1016 30 845 24.95 16.4 61.5 69 10.7 51.2 -69.61 -2.741
18:31 1016 30 845 24.95 16.3 61.4 69 10.6 51.2 -71.1 -2.799
18:32 1016 30 845 24.95 16.3 61.4 69 10.6 51 -72.6 -2.858
18:33 1016 30 845 24.95 16.3 61.3 67 10.3 50.5 -74 -2.913
18:34 1016 30 845 24.95 16.3 61.3 70 10.9 51.6 -74.9 -2.949
18:35 1016 30 845 24.95 16.3 61.3 73 11.4 52.6 -75.4 -2.969
18:36 1016 30 845 24.95 16.2 61.1 73 11.3 52.4 -75.5 -2.972
18:37 1016 30 845 24.95 16.1 61 76 11.9 53.3 -75.4 -2.969
18:38 1016 30 845 24.95 16 60.8 74 11.5 52.7 -75.1 -2.957
18:39 1016 30 845 24.95 16 60.7 73 11.3 52.3 -74.9 -2.949
18:40 1016 30 845 24.95 16 60.7 72 11 51.8 -74.7 -2.941
18:41 1016 30 845 24.95 16 60.8 71 10.9 51.6 -74.7 -2.941
18:42 1016 30 845 24.95 16.1 61.1 69 10.5 50.9 -74.8 -2.945
18:43 1016 30 845 24.95 16.3 61.3 69 10.7 51.3 -74.9 -2.949
18:44 1016 30 845 24.95 16.4 61.5 68 10.5 50.9 -75.1 -2.957
18:45 1016 30 846 24.98 16.5 61.7 68 10.7 51.2 -75.3 -2.965
18:46 1016 30 846 24.98 16.6 61.9 66 10.4 50.8 -75.5 -2.972
18:47 1016 30 846 24.98 16.8 62.2 66 10.5 51 -75.7 -2.98
18:48 1016 30 846 24.98 16.9 62.5 66 10.6 51.1 -75.9 -2.988
18:49 1016 30 846 24.98 17 62.7 66 10.6 51.1 -76.1 -2.996
18:50 1016 30 846 24.98 17.1 62.7 68 11.3 52.3 -76.2 -3
18:51 1016 30 846 24.98 17.1 62.7 67 11.1 51.9 -76.4 -3.008
18:52 1016 30 846 24.98 17 62.6 68 11.2 52.1 -76.5 -3.012
18:53 1016 30 846 24.98 17 62.5 69 11.3 52.3 -76.6 -3.016
18:54 1016 30 846 24.98 16.9 62.5 66 10.7 51.3 -76.7 -3.02
18:55 1016 30 846 24.98 17 62.6 65 10.5 51 -76.8 -3.024
18:56 1016 30 846 24.98 17.1 62.8 62 9.9 49.9 -76.9 -3.028
18:57 1016 30 846 24.98 17.3 63.1 64 10.4 50.7 -77 -3.031
18:58 1016 30 846 24.98 17.2 63 67 11.1 52 -77.1 -3.035
18:59 1016 30 846 24.98 17.2 62.9 68 11.3 52.3 -77.2 -3.039
19:00 1016 30 846 24.98 17.1 62.7 68 11.2 52.1 -77.3 -3.043
19:01 1016 30 846 24.98 17.1 62.7 67 11 51.8 -77.3 -3.043
19:02 1016 30 846 24.98 17 62.7 66 10.7 51.3 -77.4 -3.047
19:03 1016 30 846 24.98 17.1 62.8 65 10.6 51.1 -77.5 -3.051
19:04 1016 30 846 24.98 17.1 62.8 66 10.8 51.5 -77.6 -3.055
19:05 1016 30 846 24.98 17.1 62.8 67 10.9 51.7 -77.6 -3.055
19:06 1017 30.03 846 24.98 17.1 62.8 67 10.9 51.7 -77.7 -3.059
19:07 1017 30.03 846 24.98 17.1 62.8 68 11.2 52.2 -77.8 -3.063
19:08 1017 30.03 846 24.98 17.1 62.8 66 10.9 51.5 -77.9 -3.067
19:09 1017 30.03 846 24.98 17.1 62.7 68 11.1 52 -77.9 -3.067
19:10 1017 30.03 846 24.98 17.1 62.7 69 11.3 52.3 -78 -3.071
19:11 1017 30.03 846 24.98 17 62.7 68 11.2 52.2 -78 -3.071
19:12 1017 30.03 846 24.98 17 62.6 66 10.7 51.2 -78.1 -3.075
19:13 1017 30.03 846 24.98 17 62.6 69 11.3 52.3 -78.1 -3.075
19:14 1017 30.03 846 24.98 17 62.5 68 11.1 51.9 -78.2 -3.079
19:15 1017 30.03 846 24.98 16.9 62.4 68 11.1 52 -78.2 -3.079
19:16 1017 30.03 846 24.98 16.9 62.4 68 11 51.8 -78.3 -3.083
19:17 1017 30.03 846 24.98 16.8 62.3 67 10.6 51.1 -78.3 -3.083
19:18 1017 30.03 846 24.98 16.8 62.2 66 10.4 50.8 -78.3 -3.083
19:19 1017 30.03 846 24.98 16.8 62.2 66 10.4 50.8 -78.4 -3.087
19:20 1017 30.03 846 24.98 16.8 62.2 66 10.4 50.8 -78.5 -3.091
19:21 1017 30.03 846 24.98 16.8 62.2 65 10.1 50.3 -78.5 -3.091
19:22 1017 30.03 846 24.98 16.8 62.3 64 10.1 50.2 -78.6 -3.094
19:23 1017 30.03 846 24.98 16.8 62.3 63 9.9 49.8 -78.6 -3.094
19:24 1017 30.03 846 24.98 16.9 62.3 64 10.2 50.3 -78.7 -3.098
19:25 1017 30.03 846 24.98 16.9 62.4 65 10.3 50.6 -78.7 -3.098
19:26 1017 30.03 846 24.98 16.8 62.3 62 9.7 49.5 -78.8 -3.102
19:27 1017 30.03 846 24.98 16.9 62.5 62 9.6 49.3 -78.8 -3.102
19:28 1017 30.03 846 24.98 17 62.6 62 9.8 49.6 -78.9 -3.106
19:29 1017 30.03 846 24.98 17 62.6 61 9.6 49.3 -78.9 -3.106
19:30 1017 30.03 846 24.98 17.1 62.7 62 9.9 49.8 -79 -3.11
19:31 1017 30.03 846 24.98 17.1 62.7 59 9.1 48.5 -79 -3.11
19:32 1017 30.03 846 24.98 17.2 62.9 54 7.9 46.3 -79.1 -3.114
19:33 1017 30.03 846 24.98 17.6 63.6 53 8.1 46.6 -79.1 -3.114
19:34 1017 30.03 847 25.01 17.8 64.1 56 8.9 48.1 -79.2 -3.118
19:35 1017 30.03 847 25.01 17.8 64.1 57 9.2 48.6 -79.2 -3.118
19:36 1017 30.03 847 25.01 17.8 64 55 8.6 47.6 -79.2 -3.118
19:37 1017 30.03 847 25.01 17.8 64.1 56 9.1 48.4 -79.2 -3.118
19:38 1017 30.03 847 25.01 17.8 64 55 8.8 47.8 -79.2 -3.118
19:39 1017 30.03 847 25.01 17.8 64.1 57 9.4 48.9 -79.2 -3.118
19:40 1017 30.03 847 25.01 17.7 63.8 58 9.5 49.1 -79.1 -3.114
19:41 1017 30.03 847 25.01 17.6 63.6 57 8.9 48.1 -78.9 -3.106
19:42 1017 30.03 847 25.01 17.5 63.5 59 9.4 48.9 -78.7 -3.098
19:43 1017 30.03 847 25.01 17.4 63.4 56 8.8 47.8 -78.3 -3.083
19:44 1017 30.03 846 24.98 17.4 63.3 56 8.6 47.4 -77.7 -3.059
19:45 1017 30.03 846 24.98 17.5 63.5 55 8.4 47.1 -77 -3.031
19:46 1017 30.03 846 24.98 17.6 63.6 54 8.2 46.7 -76.8 -3.024
19:47 1017 30.03 846 24.98 17.7 63.9 51 7.4 45.4 -77.1 -3.035
19:48 1017 30.03 846 24.98 17.9 64.2 50 7.5 45.5 -77.8 -3.063
19:49 1017 30.03 846 24.98 18 64.4 51 7.7 45.9 -78.6 -3.094
19:50 1017 30.03 846 24.98 18 64.4 49 7.4 45.3 -79.6 -3.134
19:51 1017 30.03 846 24.98 18.1 64.5 49 7.4 45.4 -80.1 -3.154
19:52 1016 30 846 24.98 18.1 64.7 50 7.8 46 -80.3 -3.161
19:53 1016 30 846 24.98 18.2 64.8 51 8.1 46.7 -80 -3.15
19:54 1016 30 846 24.98 18.3 65 49 7.5 45.5 -79.6 -3.134
19:55 1016 30 846 24.98 18.5 65.3 47 7.2 44.9 -79.4 -3.126
19:56 1016 30 845 24.95 18.7 65.7 46 7.1 44.8 -79.4 -3.126
19:57 1016 30 845 24.95 18.9 66.1 47 7.5 45.5 -79.5 -3.13
19:58 1016 30 845 24.95 19.1 66.4 54 9.7 49.4 -79.5 -3.13
19:59 1016 30 845 24.95 19 66.2 55 9.9 49.8 -79.5 -3.13
20:00 1016 30 846 24.98 18.7 65.6 54 9.3 48.7 -79.6 -3.134
20:01 1016 30 846 24.98 18.4 65.2 57 9.9 49.7 -79.7 -3.138
20:02 1016 30 846 24.98 18.2 64.8 57 9.8 49.6 -79.7 -3.138
20:03 1016 30 846 24.98 18.1 64.5 57 9.5 49.1 -79.7 -3.138
20:04 1017 30.03 846 24.98 18 64.3 57 9.3 48.8 -79.8 -3.142
20:05 1017 30.03 846 24.98 17.9 64.1 58 9.7 49.5 -79.8 -3.142
20:06 1017 30.03 846 24.98 17.7 63.9 56 9 48.2 -79.8 -3.142
20:07 1017 30.03 846 24.98 17.7 63.8 58 9.5 49 -79.8 -3.142
20:08 1017 30.03 846 24.98 17.6 63.7 57 9.1 48.4 -79.9 -3.146
20:09 1017 30.03 846 24.98 17.6 63.7 55 8.6 47.6 -79.9 -3.146
20:10 1017 30.03 846 24.98 17.7 63.8 56 9 48.1 -79.9 -3.146
20:11 1017 30.03 846 24.98 17.7 63.8 56 8.9 48 -79.9 -3.146
20:12 1017 30.03 846 24.98 17.7 63.9 57 9.2 48.6 -80 -3.15
20:13 1017 30.03 846 24.98 17.7 63.8 57 9.1 48.4 -80 -3.15
20:14 1017 30.03 846 24.98 17.7 63.8 58 9.5 49.1 -80 -3.15
20:15 1017 30.03 846 24.98 17.7 63.8 58 9.5 49.1 -80 -3.15
20:16 1017 30.03 846 24.98 17.6 63.6 60 9.8 49.6 -80 -3.15
20:17 1017 30.03 846 24.98 17.5 63.5 60 9.8 49.6 -80 -3.15
20:18 1017 30.03 846 24.98 17.5 63.4 63 10.5 50.9 -80 -3.15
20:19 1017 30.03 846 24.98 17.4 63.3 61 9.8 49.7 -80 -3.15
20:20 1017 30.03 846 24.98 17.4 63.3 63 10.3 50.6 -80.1 -3.154
20:21 1017 30.03 846 24.98 17.4 63.2 60 9.5 49.1 -80.1 -3.154
20:22 1016 30 846 24.98 17.4 63.3 57 9 48.2 -80.1 -3.154
20:23 1016 30 846 24.98 17.5 63.4 58 9.2 48.6 -80.1 -3.154
20:24 1016 30 846 24.98 17.5 63.5 59 9.4 48.9 -80.1 -3.154
20:25 1016 30 845 24.95 17.4 63.3 59 9.4 48.9 -80.1 -3.154
20:26 1016 30 845 24.95 17.3 63.1 61 9.6 49.4 -80.2 -3.157
20:27 1016 30 845 24.95 17.2 62.9 62 9.9 49.8 -80.2 -3.157
20:28 1016 30 845 24.95 17 62.6 62 9.8 49.6 -80.2 -3.157
20:29 1016 30 845 24.95 16.9 62.5 63 9.9 49.8 -80.2 -3.157
20:30 1016 30 845 24.95 16.8 62.3 64 10.1 50.2 -80.3 -3.161
20:31 1016 30 845 24.95 16.8 62.2 64 10 50 -80.3 -3.161
20:32 1016 30 845 24.95 16.6 62 64 9.9 49.8 -80.3 -3.161
20:33 1016 30 845 24.95 16.7 62.1 61 9.2 48.6 -80.3 -3.161
20:34 1016 30 845 24.95 16.9 62.4 59 9 48.2 -80.3 -3.161
20:35 1016 30 845 24.95 17 62.6 57 8.6 47.5 -80.3 -3.161
20:36 1016 30 845 24.95 17.2 63 56 8.6 47.4 -80.3 -3.161
20:37 1016 30 845 24.95 17.4 63.4 56 8.5 47.4 -80.4 -3.165
20:38 1016 30 845 24.95 17.5 63.6 55 8.4 47.1 -80.4 -3.165
20:39 1016 30 845 24.95 17.6 63.7 54 8.3 47 -80.4 -3.165
20:40 1016 30 845 24.95 17.7 63.8 54 8.3 46.9 -80.4 -3.165
20:41 1016 30 845 24.95 17.8 64 56 8.9 48 -80.4 -3.165
20:42 1016 30 845 24.95 17.7 63.9 56 9 48.1 -80.4 -3.165
20:43 1016 30 846 24.98 17.6 63.6 61 10 50 -80.4 -3.165
20:44 1016 30 846 24.98 17.2 63 63 10.3 50.5 -80.4 -3.165
20:45 1016 30 846 24.98 16.9 62.5 61 9.4 49 -80.5 -3.169
20:46 1016 30 846 24.98 16.8 62.2 63 9.7 49.5 -80.5 -3.169
20:47 1016 30 846 24.98 16.8 62.2 56 8.1 46.5 -80.5 -3.169
20:48 1016 30 846 24.98 17 62.6 54 7.7 45.8 -80.5 -3.169
20:49 1016 30 846 24.98 17.3 63.1 54 8 46.3 -80.6 -3.173
20:50 1016 30 846 24.98 17.5 63.5 52 7.6 45.7 -80.6 -3.173
20:51 1016 30 846 24.98 17.6 63.7 53 7.9 46.2 -80.6 -3.173
20:52 1016 30 845 24.95 17.7 63.9 49 7 44.6 -80.7 -3.177
20:53 1016 30 845 24.95 18 64.3 47 6.6 43.8 -80.7 -3.177
20:54 1016 30 845 24.95 18.2 64.7 47 6.8 44.3 -80.7 -3.177
20:55 1016 30 845 24.95 18.3 65 46 6.6 44 -80.7 -3.177
20:56 1016 30 845 24.95 18.5 65.2 45 6.5 43.7 -80.8 -3.181
20:57 1016 30 845 24.95 18.6 65.5 46 6.9 44.4 -80.8 -3.181
20:58 1016 30 845 24.95 18.6 65.4 49 7.9 46.2 -80.8 -3.181
20:59 1016 30 845 24.95 18.3 64.9 50 7.9 46.3 -80.8 -3.181
21:00 1016 30 845 24.95 17.9 64.3 54 8.5 47.3 -80.8 -3.181
21:01 1016 30 845 24.95 17.6 63.8 51 7.6 45.6 -80.9 -3.185
21:02 1016 30 845 24.95 17.6 63.6 56 8.8 47.9 -80.9 -3.185
21:03 1016 30 845 24.95 17.3 63.1 57 8.8 47.8 -80.9 -3.185
21:04 1016 30 845 24.95 17 62.6 59 8.9 48.1 -80.9 -3.185
21:05 1016 30 845 24.95 16.8 62.2 59 8.9 48 -81 -3.189
21:06 1016 30 845 24.95 16.6 61.9 59 8.7 47.7 -81 -3.189
21:07 1016 30 845 24.95 16.5 61.7 60 8.7 47.7 -81 -3.189
21:08 1016 30 845 24.95 16.4 61.5 61 9 48.3 -81 -3.189
21:09 1016 30 845 24.95 16.3 61.3 63 9.4 48.8 -81 -3.189
21:10 1016 30 845 24.95 16.1 60.9 63 9.1 48.3 -81 -3.189
21:11 1016 30 846 24.98 15.9 60.7 63 9 48.2 -81.1 -3.193
21:12 1016 30 845 24.95 15.7 60.3 64 9.1 48.3 -81.1 -3.193
21:13 1016 30 845 24.95 15.6 60 64 8.9 48.1 -81.1 -3.193
21:14 1016 30 845 24.95 15.5 59.9 64 8.8 47.8 -81.1 -3.193
21:15 1016 30 845 24.95 15.5 59.9 64 8.8 47.8 -81.1 -3.193
21:16 1016 30 845 24.95 15.6 60 66 9.4 48.8 -81.2 -3.197
21:17 1016 30 845 24.95 15.3 59.6 65 8.9 48 -81.2 -3.197
21:18 1016 30 845 24.95 15.2 59.3 67 9.1 48.4 -81.2 -3.197
21:19 1016 30 845 24.95 15 59.1 70 9.6 49.4 -81.2 -3.197
21:20 1016 30 845 24.95 14.8 58.6 70 9.3 48.8 -81.2 -3.197
21:21 1016 30 845 24.95 14.7 58.5 63 7.9 46.2 -81.2 -3.197
21:22 1016 30 845 24.95 15.2 59.3 64 8.5 47.3 -81.3 -3.201
21:23 1016 30 845 24.95 15.5 59.8 64 8.8 47.8 -81.3 -3.201
21:24 1016 30 845 24.95 15.4 59.7 63 8.5 47.4 -81.3 -3.201
21:25 1016 30 845 24.95 15.4 59.8 64 8.7 47.6 -81.4 -3.205
21:26 1016 30 845 24.95 15.4 59.7 65 8.9 47.9 -81.4 -3.205
21:27 1016 30 845 24.95 15.4 59.7 64 8.6 47.5 -81.5 -3.209
21:28 1016 30 845 24.95 15.4 59.8 66 9.2 48.5 -81.5 -3.209
21:29 1016 30 845 24.95 15.3 59.6 66 9.1 48.4 -81.5 -3.209
21:30 1016 30 845 24.95 15.1 59.2 66 8.9 48 -81.6 -3.213
21:31 1016 30 845 24.95 15 59 65 8.6 47.5 -81.6 -3.213
21:32 1016 30 845 24.95 15.1 59.2 62 8 46.3 -81.6 -3.213
21:33 1016 30 845 24.95 15.3 59.6 61 7.9 46.3 -81.7 -3.217
21:34 1016 30 845 24.95 15.6 60 62 8.4 47.2 -81.8 -3.22
21:35 1016 30 845 24.95 15.7 60.2 61 8.2 46.7 -81.8 -3.22
21:36 1016 30 845 24.95 15.8 60.4 60 8.1 46.5 -81.9 -3.224
21:37 1016 30 845 24.95 15.9 60.6 61 8.5 47.3 -81.9 -3.224
21:38 1016 30 845 24.95 15.8 60.5 63 9 48.1 -82 -3.228
21:39 1016 30 845 24.95 15.6 60 66 9.2 48.6 -82 -3.228
21:40 1016 30 845 24.95 15.3 59.5 69 9.7 49.4 -82.1 -3.232
21:41 1016 30 845 24.95 14.9 58.7 70 9.5 49.1 -82.1 -3.232
21:42 1016 30 845 24.95 14.6 58.3 71 9.4 48.9 -82 -3.228
21:43 1016 30 845 24.95 14.4 57.9 70 9.1 48.4 -82 -3.228
21:44 1016 30 845 24.95 14.4 57.9 68 8.6 47.5 -82 -3.228
21:45 1016 30 845 24.95 14.7 58.4 66 8.4 47.1 -82 -3.228
21:46 1016 30 845 24.95 15 59.1 65 8.5 47.3 -82.1 -3.232
21:47 1016 30 845 24.95 15.4 59.7 63 8.5 47.4 -82.1 -3.232
21:48 1016 30 845 24.95 15.6 60.1 62 8.4 47.1 -82.1 -3.232
21:49 1016 30 845 24.95 15.8 60.5 61 8.4 47.2 -82.2 -3.236
21:50 1016 30 845 24.95 15.9 60.6 61 8.4 47.2 -82.3 -3.24
21:51 1016 30 845 24.95 15.9 60.7 60 8.2 46.7 -82.3 -3.24
21:52 1016 30 845 24.95 16 60.8 62 8.9 47.9 -82.4 -3.244
21:53 1016 30 845 24.95 16 60.7 60 8.2 46.8 -82.4 -3.244
21:54 1016 30 845 24.95 16.1 60.9 60 8.4 47.1 -82.5 -3.248
21:55 1016 30 845 24.95 16.1 60.9 63 9 48.2 -82.5 -3.248
21:56 1016 30 845 24.95 15.9 60.6 64 9.2 48.5 -82.5 -3.248
21:57 1016 30 845 24.95 15.7 60.3 63 8.9 47.9 -82.6 -3.252
21:58 1016 30 845 24.95 15.7 60.3 62 8.6 47.4 -82.6 -3.252
21:59 1016 30 845 24.95 15.8 60.4 62 8.6 47.5 -82.6 -3.252
22:00 1016 30 846 24.98 15.7 60.2 65 9.1 48.4 -82.7 -3.256
22:01 1016 30 846 24.98 15.6 60.1 64 8.9 48 -82.7 -3.256
22:02 1016 30 845 24.95 15.5 60 65 9.1 48.4 -82.7 -3.256
22:03 1016 30 846 24.98 15.4 59.7 66 9.2 48.5 -82.7 -3.256
22:04 1016 30 846 24.98 15.3 59.6 64 8.7 47.6 -82.7 -3.256
22:05 1016 30 846 24.98 15.3 59.6 66 9 48.3 -82.8 -3.26
22:06 1016 30 845 24.95 15.3 59.5 66 9.1 48.4 -82.8 -3.26
22:07 1016 30 846 24.98 15.2 59.4 66 9 48.2 -82.8 -3.26
22:08 1016 30 846 24.98 15.2 59.4 65 8.8 47.9 -82.8 -3.26
22:09 1016 30 846 24.98 15.3 59.5 65 8.8 47.8 -82.9 -3.264
22:10 1016 30 846 24.98 15.3 59.6 65 8.8 47.9 -82.9 -3.264
22:11 1016 30 846 24.98 15.4 59.7 65 8.8 47.9 -82.9 -3.264
22:12 1016 30 845 24.95 15.4 59.6 64 8.7 47.6 -82.9 -3.264
22:13 1016 30 846 24.98 15.4 59.7 64 8.8 47.8 -83 -3.268
22:14 1016 30 845 24.95 15.4 59.7 65 8.9 48 -83 -3.268
22:15 1016 30 845 24.95 15.4 59.7 64 8.8 47.8 -83 -3.268
22:16 1016 30 845 24.95 15.4 59.7 64 8.7 47.7 -83 -3.268
22:17 1016 30 845 24.95 15.4 59.8 64 8.7 47.6 -83 -3.268
22:18 1016 30 846 24.98 15.5 59.8 64 8.8 47.9 -83.1 -3.272
22:19 1016 30 845 24.95 15.4 59.8 64 8.6 47.5 -83.1 -3.272
22:20 1016 30 845 24.95 15.4 59.8 63 8.5 47.2 -83.1 -3.272
22:21 1016 30 845 24.95 15.5 59.8 62 8.4 47.1 -83.1 -3.272
22:22 1016 30 845 24.95 15.5 60 63 8.6 47.4 -83.1 -3.272
22:23 1016 30 845 24.95 15.6 60 63 8.5 47.4 -83.1 -3.272
22:24 1016 30 845 24.95 15.6 60 62 8.4 47.2 -83.2 -3.276
22:25 1016 30 845 24.95 15.6 60 62 8.5 47.3 -83.2 -3.276
22:26 1016 30 845 24.95 15.6 60 62 8.3 47 -83.2 -3.276
22:27 1016 30 845 24.95 15.6 60.1 62 8.6 47.4 -83.2 -3.276
22:28 1016 30 846 24.98 15.6 60.1 62 8.5 47.3 -83.3 -3.28
22:29 1016 30 846 24.98 15.6 60.1 62 8.4 47.1 -83.3 -3.28
22:30 1016 30 846 24.98 15.7 60.2 62 8.4 47.2 -83.3 -3.28
22:31 1016 30 846 24.98 15.6 60.1 61 8.2 46.7 -83.3 -3.28
22:32 1016 30 846 24.98 15.7 60.2 62 8.5 47.3 -83.3 -3.28
22:33 1016 30 846 24.98 15.7 60.2 61 8.3 46.9 -83.3 -3.28
22:34 1016 30 846 24.98 15.7 60.3 60 8.2 46.7 -83.3 -3.28
22:35 1017 30.03 846 24.98 15.8 60.4 59 8 46.3 -83.3 -3.28
22:36 1017 30.03 846 24.98 15.9 60.5 60 8.1 46.6 -83.3 -3.28
22:37 1017 30.03 846 24.98 15.8 60.5 63 9 48.1 -83.3 -3.28
22:38 1017 30.03 846 24.98 15.6 60.1 64 8.8 47.8 -83.3 -3.28
22:39 1017 30.03 846 24.98 15.4 59.7 66 9.2 48.6 -83.3 -3.28
22:40 1017 30.03 846 24.98 15.1 59.2 68 9.2 48.5 -83.3 -3.28
22:41 1017 30.03 846 24.98 14.9 58.7 66 8.7 47.7 -83.3 -3.28
22:42 1017 30.03 846 24.98 14.7 58.5 68 8.9 47.9 -83.3 -3.28
22:43 1017 30.03 846 24.98 14.7 58.4 67 8.8 47.8 -83.3 -3.28
22:44 1017 30.03 846 24.98 14.6 58.3 69 9 48.2 -83.3 -3.28
22:45 1017 30.03 846 24.98 14.5 58.2 69 9 48.2 -83.3 -3.28
22:46 1017 30.03 846 24.98 14.5 58 69 8.8 47.9 -83.3 -3.28
22:47 1017 30.03 846 24.98 14.4 57.9 69 8.9 47.9 -83.3 -3.28
22:48 1017 30.03 846 24.98 14.4 58 70 9 48.2 -83.3 -3.28
22:49 1017 30.03 846 24.98 14.4 57.8 70 9 48.1 -83.3 -3.28
22:50 1017 30.03 846 24.98 14.3 57.8 71 9.1 48.4 -83.3 -3.28
22:51 1017 30.03 846 24.98 14.3 57.8 71 9.1 48.4 -83.3 -3.28
22:52 1017 30.03 846 24.98 14.3 57.8 71 9.2 48.6 -83.3 -3.28
22:53 1017 30.03 846 24.98 14.3 57.8 70 9.1 48.3 -83.3 -3.28
22:54 1017 30.03 846 24.98 14.4 57.9 70 9.1 48.3 -83.3 -3.28
22:55 1017 30.03 846 24.98 14.5 58 70 9.1 48.4 -83.3 -3.28
22:56 1017 30.03 846 24.98 14.5 58.1 69 9 48.2 -83.4 -3.283
22:57 1017 30.03 846 24.98 14.6 58.2 70 9.1 48.5 -83.4 -3.283
22:58 1017 30.03 846 24.98 14.6 58.2 71 9.3 48.8 -83.4 -3.283
22:59 1017 30.03 846 24.98 14.5 58.1 69 9 48.3 -83.4 -3.283
23:00 1017 30.03 846 24.98 14.5 58.1 70 9.2 48.6 -83.4 -3.283
23:01 1017 30.03 846 24.98 14.5 58.1 71 9.3 48.8 -83.4 -3.283
23:02 1017 30.03 846 24.98 14.4 57.9 72 9.5 49 -83.4 -3.283
23:03 1017 30.03 846 24.98 14.3 57.7 73 9.5 49.2 -83.4 -3.283
23:04 1017 30.03 846 24.98 14.2 57.6 73 9.5 49.1 -83.4 -3.283
23:05 1017 30.03 846 24.98 14.1 57.4 74 9.6 49.2 -83.4 -3.283
23:06 1017 30.03 846 24.98 14.1 57.3 73 9.4 48.9 -83.3 -3.28
23:07 1017 30.03 846 24.98 14.1 57.3 72 9.1 48.4 -83.3 -3.28
23:08 1017 30.03 846 24.98 14.2 57.5 72 9.2 48.6 -83.3 -3.28
23:09 1017 30.03 846 24.98 14.2 57.5 72 9.3 48.8 -83.4 -3.283
23:10 1017 30.03 846 24.98 14.1 57.4 74 9.5 49.1 -83.4 -3.283
23:11 1017 30.03 846 24.98 14 57.3 72 9.2 48.6 -83.3 -3.28
23:12 1017 30.03 846 24.98 14 57.2 74 9.4 49 -83.3 -3.28
23:13 1017 30.03 846 24.98 13.9 57.1 75 9.7 49.5 -83.3 -3.28
23:14 1017 30.03 846 24.98 13.8 56.8 77 9.8 49.7 -83.3 -3.28
23:15 1017 30.03 846 24.98 13.6 56.5 78 9.9 49.9 -83.2 -3.276
23:16 1017 30.03 846 24.98 13.4 56.1 79 9.9 49.8 -83.1 -3.272
23:17 1017 30.03 846 24.98 13.2 55.8 79 9.6 49.4 -83 -3.268
23:18 1017 30.03 846 24.98 13.2 55.8 78 9.5 49.1 -83 -3.268
23:19 1017 30.03 846 24.98 13.3 56 77 9.5 49 -82.9 -3.264
23:20 1017 30.03 846 24.98 13.5 56.3 77 9.6 49.2 -82.9 -3.264
23:21 1017 30.03 846 24.98 13.5 56.3 77 9.6 49.2 -82.9 -3.264
23:22 1017 30.03 846 24.98 13.6 56.4 76 9.5 49 -82.9 -3.264
23:23 1017 30.03 846 24.98 13.6 56.5 75 9.4 48.9 -82.9 -3.264
23:24 1017 30.03 846 24.98 13.7 56.7 75 9.4 48.9 -83 -3.268
23:25 1017 30.03 846 24.98 13.7 56.7 76 9.6 49.2 -83 -3.268
23:26 1017 30.03 846 24.98 13.7 56.6 77 9.8 49.6 -83 -3.268
23:27 1017 30.03 846 24.98 13.5 56.4 78 9.8 49.7 -83 -3.268
23:28 1017 30.03 846 24.98 13.4 56.1 79 9.8 49.6 -82.9 -3.264
23:29 1017 30.03 846 24.98 13.3 55.9 79 9.8 49.6 -82.9 -3.264
23:30 1017 30.03 846 24.98 13.2 55.8 80 9.8 49.7 -82.9 -3.264
23:31 1017 30.03 846 24.98 13.1 55.7 80 9.8 49.6 -82.9 -3.264
23:32 1017 30.03 846 24.98 13.1 55.6 80 9.7 49.5 -82.8 -3.26
23:33 1017 30.03 846 24.98 13.1 55.5 80 9.7 49.5 -82.8 -3.26
23:34 1017 30.03 846 24.98 13.1 55.5 80 9.7 49.4 -82.8 -3.26
23:35 1017 30.03 846 24.98 13.1 55.5 80 9.7 49.4 -82.7 -3.256
23:36 1017 30.03 846 24.98 13 55.5 79 9.5 49.1 -82.7 -3.256
23:37 1017 30.03 846 24.98 13.1 55.6 79 9.5 49.1 -82.7 -3.256
23:38 1017 30.03 846 24.98 13.1 55.6 79 9.5 49.2 -82.7 -3.256
23:39 1017 30.03 846 24.98 13.1 55.6 79 9.6 49.2 -82.8 -3.26
23:40 1017 30.03 846 24.98 13.1 55.6 79 9.6 49.3 -82.8 -3.26
23:41 1017 30.03 846 24.98 13 55.4 80 9.6 49.3 -82.8 -3.26
23:42 1017 30.03 846 24.98 13 55.3 79 9.5 49.1 -82.8 -3.26
23:43 1017 30.03 846 24.98 13 55.4 78 9.3 48.8 -82.8 -3.26
23:44 1017 30.03 846 24.98 13.1 55.5 78 9.4 48.9 -82.9 -3.264
23:45 1017 30.03 846 24.98 13.1 55.7 77 9.3 48.7 -82.9 -3.264
23:46 1017 30.03 846 24.98 13.2 55.8 77 9.3 48.8 -82.9 -3.264
23:47 1017 30.03 846 24.98 13.3 55.9 77 9.3 48.7 -83 -3.268
23:48 1017 30.03 846 24.98 13.3 56 76 9.2 48.6 -83 -3.268
23:49 1017 30.03 846 24.98 13.4 56.1 76 9.3 48.8 -83.1 -3.272
23:50 1017 30.03 846 24.98 13.4 56.1 77 9.4 49 -83.1 -3.272
23:51 1017 30.03 846 24.98 13.4 56.1 77 9.4 48.9 -83.2 -3.276
23:52 1017 30.03 846 24.98 13.4 56 76 9.3 48.7 -83.2 -3.276
23:53 1017 30.03 846 24.98 13.4 56.1 75 9.2 48.5 -83.2 -3.276
23:54 1017 30.03 846 24.98 13.5 56.3 75 9.1 48.5 -83.3 -3.28
23:55 1017 30.03 846 24.98 13.6 56.4 75 9.2 48.6 -83.3 -3.28
23:56 1017 30.03 846 24.98 13.6 56.5 74 9.1 48.4 -83.4 -3.283
23:57 1017 30.03 846 24.98 13.6 56.5 74 9.1 48.4 -83.4 -3.283
23:58 1017 30.03 846 24.98 13.6 56.5 76 9.4 48.9 -83.5 -3.287
23:59 1017 30.03 846 24.98 13.5 56.3 77 9.7 49.4 -83.5 -3.287
24:00 1017 30.03 846 24.98 13.4 56.1 78 9.6 49.3 -83.5 -3.287